Observation data for Amarillo 7 South Southeast on 08/03/2020      Previous  Date  Next       Current Mesonet Observations  Soil Data  Daily Summary Page  Observations in Plain Language
KAM1 030500Z 27004KT 22/15 A3022 RMK A01 T02240149  RH  063%=      5-min Rain = 0
KAM1 030501Z 27004KT 22/15 A3022 RMK A01 T02240148  RH  062%=      5-min Rain = 0
KAM1 030502Z 26003KT 23/15 A3022 RMK A01 T02250149  RH  062%=      5-min Rain = 0
KAM1 030503Z 26003KT 23/15 A3022 RMK A01 T02250149  RH  062%=      5-min Rain = 0
KAM1 030504Z 25003KT 23/15 A3022 RMK A01 T02250149  RH  062%=      5-min Rain = 0
KAM1 030505Z 25003KT 23/15 A3021 RMK A01 T02250149  RH  062%=      5-min Rain = 0
KAM1 030506Z 25004KT 23/15 A3021 RMK A01 T02250149  RH  062%=      5-min Rain = 0
KAM1 030507Z 24003KT 23/15 A3021 RMK A01 T02250149  RH  062%=      5-min Rain = 0
KAM1 030508Z 24003KT 23/15 A3021 RMK A01 T02250149  RH  062%=      5-min Rain = 0
KAM1 030509Z 25002KT 22/15 A3021 RMK A01 T02240149  RH  062%=      5-min Rain = 0
KAM1 030510Z 24002KT 22/15 A3021 RMK A01 T02240149  RH  062%=      5-min Rain = 0
KAM1 030511Z 24001KT 22/15 A3021 RMK A01 T02240149  RH  063%=      5-min Rain = 0
KAM1 030512Z 23001KT 22/15 A3021 RMK A01 T02240149  RH  063%=      5-min Rain = 0
KAM1 030513Z 25001KT 22/15 A3021 RMK A01 T02230149  RH  063%=      5-min Rain = 0
KAM1 030514Z 26001KT 22/15 A3021 RMK A01 T02230149  RH  063%=      5-min Rain = 0
KAM1 030515Z 27001KT 22/15 A3021 RMK A01 T02230149  RH  063%=      5-min Rain = 0
KAM1 030516Z 28001KT 22/15 A3021 RMK A01 T02230149  RH  063%=      5-min Rain = 0
KAM1 030517Z 29001KT 22/15 A3021 RMK A01 T02230149  RH  063%=      5-min Rain = 0
KAM1 030518Z 00000KT 22/15 A3021 RMK A01 T02220149  RH  063%=      5-min Rain = 0
KAM1 030519Z 00000KT 22/15 A3021 RMK A01 T02220149  RH  063%=      5-min Rain = 0
KAM1 030520Z 14000KT 22/15 A3021 RMK A01 T02220150  RH  064%=      5-min Rain = 0
KAM1 030521Z 15002KT 22/15 A3021 RMK A01 T02220149  RH  063%=      5-min Rain = 0
KAM1 030522Z 16003KT 22/15 A3021 RMK A01 T02220149  RH  063%=      5-min Rain = 0
KAM1 030523Z 16004KT 22/15 A302 RMK A01 T02220150  RH  064%=      5-min Rain = 0
KAM1 030524Z 15004KT 22/15 A302 RMK A01 T02210151  RH  065%=      5-min Rain = 0
KAM1 030525Z 15005KT 22/15 A302 RMK A01 T02200152  RH  065%=      5-min Rain = 0
KAM1 030526Z 14006KT 22/15 A302 RMK A01 T02180152  RH  066%=      5-min Rain = 0
KAM1 030527Z 14006KT 22/15 A302 RMK A01 T02170153  RH  067%=      5-min Rain = 0
KAM1 030528Z 14006KT 22/15 A302 RMK A01 T02160154  RH  068%=      5-min Rain = 0
KAM1 030529Z 14006KT 22/15 A302 RMK A01 T02150154  RH  068%=      5-min Rain = 0
KAM1 030530Z 13005KT 22/16 A302 RMK A01 T02150155  RH  069%=      5-min Rain = 0
KAM1 030531Z 11005KT 21/16 A302 RMK A01 T02140155  RH  069%=      5-min Rain = 0
KAM1 030532Z 12005KT 22/16 A302 RMK A01 T02150156  RH  069%=      5-min Rain = 0
KAM1 030533Z 11005KT 21/16 A302 RMK A01 T02140155  RH  069%=      5-min Rain = 0
KAM1 030534Z 10004KT 21/16 A302 RMK A01 T02130155  RH  069%=      5-min Rain = 0
KAM1 030535Z 10004KT 21/15 A302 RMK A01 T02140154  RH  069%=      5-min Rain = 0
KAM1 030536Z 09004KT 21/15 A302 RMK A01 T02130154  RH  069%=      5-min Rain = 0
KAM1 030537Z 09004KT 21/15 A302 RMK A01 T02140153  RH  068%=      5-min Rain = 0
KAM1 030538Z 09004KT 21/15 A302 RMK A01 T02140154  RH  068%=      5-min Rain = 0
KAM1 030539Z 08003KT 21/15 A302 RMK A01 T02140154  RH  068%=      5-min Rain = 0
KAM1 030540Z 09003KT 21/15 A302 RMK A01 T02140154  RH  069%=      5-min Rain = 0
KAM1 030541Z 09003KT 21/15 A302 RMK A01 T02140154  RH  069%=      5-min Rain = 0
KAM1 030542Z 10003KT 21/15 A302 RMK A01 T02140154  RH  069%=      5-min Rain = 0
KAM1 030543Z 11004KT 21/15 A302 RMK A01 T02140153  RH  068%=      5-min Rain = 0
KAM1 030544Z 11004KT 21/15 A302 RMK A01 T02130153  RH  068%=      5-min Rain = 0
KAM1 030545Z 11004KT 21/15 A302 RMK A01 T02140152  RH  068%=      5-min Rain = 0
KAM1 030546Z 11004KT 22/15 A302 RMK A01 T02150154  RH  068%=      5-min Rain = 0
KAM1 030547Z 11004KT 21/15 A302 RMK A01 T02140154  RH  069%=      5-min Rain = 0
KAM1 030548Z 11004KT 21/16 A302 RMK A01 T02140155  RH  069%=      5-min Rain = 0
KAM1 030549Z 11004KT 21/16 A302 RMK A01 T02140155  RH  069%=      5-min Rain = 0
KAM1 030550Z 11005KT 21/16 A302 RMK A01 T02140155  RH  069%=      5-min Rain = 0
KAM1 030551Z 12005KT 21/16 A302 RMK A01 T02130155  RH  069%=      5-min Rain = 0
KAM1 030552Z 12005KT 21/16 A302 RMK A01 T02130157  RH  070%=      5-min Rain = 0
KAM1 030553Z 12006KT 21/16 A302 RMK A01 T02110157  RH  071%=      5-min Rain = 0
KAM1 030554Z 13006KT 21/16 A302 RMK A01 T02100157  RH  072%=      5-min Rain = 0
KAM1 030555Z 13007KT 21/16 A302 RMK A01 T02100158  RH  072%=      5-min Rain = 0
KAM1 030556Z 13007KT 21/16 A302 RMK A01 T02090159  RH  073%=      5-min Rain = 0
KAM1 030557Z 13007KT 21/16 A302 RMK A01 T02090159  RH  073%=      5-min Rain = 0
KAM1 030558Z 13006KT 21/16 A302 RMK A01 T02090159  RH  073%=      5-min Rain = 0
KAM1 030559Z 13006KT 21/16 A302 RMK A01 T02090160  RH  073%=      5-min Rain = 0
KAM1 030600Z 13005KT 21/16 A302 RMK A01 T02100160  RH  073%=      5-min Rain = 0
KAM1 030601Z 13005KT 21/16 A302 RMK A01 T02100159  RH  073%=      5-min Rain = 0
KAM1 030602Z 13005KT 21/16 A302 RMK A01 T02110160  RH  072%=      5-min Rain = 0
KAM1 030603Z 13005KT 21/16 A302 RMK A01 T02110160  RH  073%=      5-min Rain = 0
KAM1 030604Z 13004KT 21/16 A302 RMK A01 T02110160  RH  073%=      5-min Rain = 0
KAM1 030605Z 12005KT 21/16 A302 RMK A01 T02100160  RH  073%=      5-min Rain = 0
KAM1 030606Z 13005KT 21/16 A302 RMK A01 T02090160  RH  073%=      5-min Rain = 0
KAM1 030607Z 13005KT 21/16 A302 RMK A01 T02080160  RH  074%=      5-min Rain = 0
KAM1 030608Z 13006KT 21/16 A302 RMK A01 T02080159  RH  074%=      5-min Rain = 0
KAM1 030609Z 13005KT 21/16 A302 RMK A01 T02080159  RH  074%=      5-min Rain = 0
KAM1 030610Z 14005KT 21/16 A302 RMK A01 T02080159  RH  074%=      5-min Rain = 0
KAM1 030611Z 13005KT 21/16 A302 RMK A01 T02080158  RH  073%=      5-min Rain = 0
KAM1 030612Z 13005KT 21/16 A302 RMK A01 T02080158  RH  073%=      5-min Rain = 0
KAM1 030613Z 14005KT 21/16 A302 RMK A01 T02090157  RH  072%=      5-min Rain = 0
KAM1 030614Z 14005KT 21/16 A302 RMK A01 T02090157  RH  072%=      5-min Rain = 0
KAM1 030615Z 14005KT 21/16 A3019 RMK A01 T02100158  RH  072%=      5-min Rain = 0
KAM1 030616Z 14005KT 21/16 A3019 RMK A01 T02100158  RH  072%=      5-min Rain = 0
KAM1 030617Z 14005KT 21/16 A302 RMK A01 T02100157  RH  072%=      5-min Rain = 0
KAM1 030618Z 14005KT 21/16 A302 RMK A01 T02110157  RH  071%=      5-min Rain = 0
KAM1 030619Z 14005KT 21/16 A302 RMK A01 T02110157  RH  071%=      5-min Rain = 0
KAM1 030620Z 13005KT 21/16 A302 RMK A01 T02110158  RH  071%=      5-min Rain = 0
KAM1 030621Z 13005KT 21/16 A302 RMK A01 T02110158  RH  071%=      5-min Rain = 0
KAM1 030622Z 13005KT 21/16 A302 RMK A01 T02110158  RH  071%=      5-min Rain = 0
KAM1 030623Z 13004KT 21/16 A302 RMK A01 T02110159  RH  072%=      5-min Rain = 0
KAM1 030624Z 12004KT 21/16 A302 RMK A01 T02100159  RH  073%=      5-min Rain = 0
KAM1 030625Z 12004KT 21/16 A302 RMK A01 T02080159  RH  073%=      5-min Rain = 0
KAM1 030626Z 11005KT 21/16 A302 RMK A01 T02070159  RH  074%=      5-min Rain = 0
KAM1 030627Z 11005KT 21/16 A302 RMK A01 T02060159  RH  075%=      5-min Rain = 0
KAM1 030628Z 11005KT 21/16 A302 RMK A01 T02050160  RH  075%=      5-min Rain = 0
KAM1 030629Z 10005KT 20/16 A302 RMK A01 T02040160  RH  076%=      5-min Rain = 0
KAM1 030630Z 10006KT 20/16 A302 RMK A01 T02030160  RH  076%=      5-min Rain = 0
KAM1 030631Z 11005KT 20/16 A3019 RMK A01 T02030162  RH  077%=      5-min Rain = 0
KAM1 030632Z 10005KT 20/16 A3019 RMK A01 T02030164  RH  078%=      5-min Rain = 0
KAM1 030633Z 11006KT 20/17 A3019 RMK A01 T02030165  RH  079%=      5-min Rain = 0
KAM1 030634Z 11006KT 20/17 A3019 RMK A01 T02030166  RH  079%=      5-min Rain = 0
KAM1 030635Z 11006KT 20/17 A3019 RMK A01 T02030166  RH  080%=      5-min Rain = 0
KAM1 030636Z 11006KT 20/17 A3019 RMK A01 T02030166  RH  080%=      5-min Rain = 0
KAM1 030637Z 11006KT 20/17 A3019 RMK A01 T02020167  RH  080%=      5-min Rain = 0
KAM1 030638Z 11006KT 20/17 A3019 RMK A01 T02020166  RH  080%=      5-min Rain = 0
KAM1 030639Z 12006KT 20/17 A3019 RMK A01 T02020166  RH  080%=      5-min Rain = 0
KAM1 030640Z 12006KT 20/16 A3019 RMK A01 T02020164  RH  079%=      5-min Rain = 0
KAM1 030641Z 12006KT 20/16 A3019 RMK A01 T02020163  RH  078%=      5-min Rain = 0
KAM1 030642Z 12006KT 20/16 A3019 RMK A01 T02030161  RH  077%=      5-min Rain = 0
KAM1 030643Z 12006KT 20/16 A3019 RMK A01 T02040160  RH  076%=      5-min Rain = 0
KAM1 030644Z 13006KT 20/16 A3019 RMK A01 T02040160  RH  075%=      5-min Rain = 0
KAM1 030645Z 13006KT 20/16 A3019 RMK A01 T02040159  RH  075%=      5-min Rain = 0
KAM1 030646Z 13006KT 20/16 A3019 RMK A01 T02040159  RH  075%=      5-min Rain = 0
KAM1 030647Z 13007KT 20/16 A3019 RMK A01 T02040158  RH  075%=      5-min Rain = 0
KAM1 030648Z 13007KT 20/16 A3019 RMK A01 T02040158  RH  075%=      5-min Rain = 0
KAM1 030649Z 13007KT 21/16 A3019 RMK A01 T02050158  RH  074%=      5-min Rain = 0
KAM1 030650Z 13006KT 20/16 A3019 RMK A01 T02040157  RH  074%=      5-min Rain = 0
KAM1 030651Z 12006KT 21/16 A3019 RMK A01 T02050157  RH  074%=      5-min Rain = 0
KAM1 030652Z 13006KT 21/16 A3019 RMK A01 T02050157  RH  074%=      5-min Rain = 0
KAM1 030653Z 13006KT 21/16 A3019 RMK A01 T02050157  RH  074%=      5-min Rain = 0
KAM1 030654Z 13006KT 20/16 A3019 RMK A01 T02040157  RH  074%=      5-min Rain = 0
KAM1 030655Z 12005KT 20/16 A3019 RMK A01 T02040157  RH  074%=      5-min Rain = 0
KAM1 030656Z 12005KT 20/16 A3019 RMK A01 T02040157  RH  074%=      5-min Rain = 0
KAM1 030657Z 12005KT 20/16 A3019 RMK A01 T02040157  RH  074%=      5-min Rain = 0
KAM1 030658Z 13005KT 20/16 A3019 RMK A01 T02030157  RH  075%=      5-min Rain = 0
KAM1 030659Z 13005KT 20/16 A302 RMK A01 T02030157  RH  075%=      5-min Rain = 0
KAM1 030700Z 13005KT 20/16 A302 RMK A01 T02020156  RH  075%=      5-min Rain = 0
KAM1 030701Z 14005KT 20/16 A302 RMK A01 T02020156  RH  075%=      5-min Rain = 0
KAM1 030702Z 14005KT 20/16 A302 RMK A01 T02020156  RH  075%=      5-min Rain = 0
KAM1 030703Z 15004KT 20/16 A302 RMK A01 T02020155  RH  074%=      5-min Rain = 0
KAM1 030704Z 16004KT 20/16 A302 RMK A01 T02030155  RH  074%=      5-min Rain = 0
KAM1 030705Z 17004KT 20/15 A302 RMK A01 T02030154  RH  074%=      5-min Rain = 0
KAM1 030706Z 17004KT 20/16 A302 RMK A01 T02030155  RH  074%=      5-min Rain = 0
KAM1 030707Z 17004KT 20/16 A302 RMK A01 T02030155  RH  074%=      5-min Rain = 0
KAM1 030708Z 18004KT 20/15 A302 RMK A01 T02030154  RH  074%=      5-min Rain = 0
KAM1 030709Z 20005KT 20/15 A302 RMK A01 T02020153  RH  074%=      5-min Rain = 0
KAM1 030710Z 20007KT 20/15 A302 RMK A01 T02000153  RH  074%=      5-min Rain = 0
KAM1 030711Z 21007KT 20/15 A302 RMK A01 T01990153  RH  075%=      5-min Rain = 0
KAM1 030712Z 21007KT 20/15 A302 RMK A01 T01980153  RH  075%=      5-min Rain = 0
KAM1 030713Z 21007KT 20/15 A302 RMK A01 T01980153  RH  076%=      5-min Rain = 0
KAM1 030714Z 21007KT 20/15 A302 RMK A01 T01980153  RH  076%=      5-min Rain = 0
KAM1 030715Z 21006KT 20/15 A302 RMK A01 T01990154  RH  075%=      5-min Rain = 0
KAM1 030716Z 19006KT 20/15 A302 RMK A01 T02000153  RH  075%=      5-min Rain = 0
KAM1 030717Z 19005KT 20/15 A302 RMK A01 T02010154  RH  074%=      5-min Rain = 0
KAM1 030718Z 20006KT 20/15 A302 RMK A01 T02020153  RH  073%=      5-min Rain = 0
KAM1 030719Z 21006KT 20/15 A302 RMK A01 T02030153  RH  073%=      5-min Rain = 0
KAM1 030720Z 21007KT 20/15 A302 RMK A01 T02030153  RH  073%=      5-min Rain = 0
KAM1 030721Z 20006KT 20/15 A302 RMK A01 T02030153  RH  073%=      5-min Rain = 0
KAM1 030722Z 20006KT 20/15 A302 RMK A01 T02030152  RH  073%=      5-min Rain = 0
KAM1 030723Z 20005KT 20/15 A302 RMK A01 T02030152  RH  072%=      5-min Rain = 0
KAM1 030724Z 20005KT 20/15 A302 RMK A01 T02040152  RH  072%=      5-min Rain = 0
KAM1 030725Z 20005KT 20/15 A302 RMK A01 T02040152  RH  072%=      5-min Rain = 0
KAM1 030726Z 20005KT 20/15 A302 RMK A01 T02040151  RH  072%=      5-min Rain = 0
KAM1 030727Z 20006KT 20/15 A302 RMK A01 T02040151  RH  072%=      5-min Rain = 0
KAM1 030728Z 19006KT 20/15 A302 RMK A01 T02040151  RH  072%=      5-min Rain = 0
KAM1 030729Z 19007KT 20/15 A302 RMK A01 T02030151  RH  072%=      5-min Rain = 0
KAM1 030730Z 19006KT 20/15 A302 RMK A01 T02030151  RH  072%=      5-min Rain = 0
KAM1 030731Z 18007KT 20/15 A302 RMK A01 T02030151  RH  072%=      5-min Rain = 0
KAM1 030732Z 18007KT 20/15 A302 RMK A01 T02030152  RH  072%=      5-min Rain = 0
KAM1 030733Z 17007KT 20/15 A302 RMK A01 T02040152  RH  072%=      5-min Rain = 0
KAM1 030734Z 17007KT 20/15 A302 RMK A01 T02040152  RH  072%=      5-min Rain = 0
KAM1 030735Z 17007KT 20/15 A302 RMK A01 T02040152  RH  072%=      5-min Rain = 0
KAM1 030736Z 17006KT 20/15 A302 RMK A01 T02040153  RH  072%=      5-min Rain = 0
KAM1 030737Z 18005KT 20/15 A302 RMK A01 T02040153  RH  072%=      5-min Rain = 0
KAM1 030738Z 18005KT 20/15 A302 RMK A01 T02040153  RH  072%=      5-min Rain = 0
KAM1 030739Z 18005KT 20/15 A302 RMK A01 T02030152  RH  072%=      5-min Rain = 0
KAM1 030740Z 18005KT 20/15 A302 RMK A01 T02030152  RH  073%=      5-min Rain = 0
KAM1 030741Z 18005KT 20/15 A302 RMK A01 T02020152  RH  073%=      5-min Rain = 0
KAM1 030742Z 18005KT 20/15 A302 RMK A01 T02020152  RH  073%=      5-min Rain = 0
KAM1 030743Z 18005KT 20/15 A302 RMK A01 T02010152  RH  073%=      5-min Rain = 0
KAM1 030744Z 18004KT 20/15 A302 RMK A01 T02010152  RH  073%=      5-min Rain = 0
KAM1 030745Z 18005KT 20/15 A302 RMK A01 T02000152  RH  074%=      5-min Rain = 0
KAM1 030746Z 17005KT 20/15 A302 RMK A01 T02000152  RH  074%=      5-min Rain = 0
KAM1 030747Z 17005KT 20/15 A302 RMK A01 T02000152  RH  074%=      5-min Rain = 0
KAM1 030748Z 17004KT 20/15 A302 RMK A01 T02000152  RH  074%=      5-min Rain = 0
KAM1 030749Z 17004KT 20/15 A302 RMK A01 T02000152  RH  074%=      5-min Rain = 0
KAM1 030750Z 17004KT 20/15 A302 RMK A01 T01990152  RH  074%=      5-min Rain = 0
KAM1 030751Z 17004KT 20/15 A302 RMK A01 T01990152  RH  074%=      5-min Rain = 0
KAM1 030752Z 17004KT 20/15 A302 RMK A01 T01990152  RH  074%=      5-min Rain = 0
KAM1 030753Z 17004KT 20/15 A302 RMK A01 T01990152  RH  074%=      5-min Rain = 0
KAM1 030754Z 17004KT 20/15 A302 RMK A01 T01980152  RH  074%=      5-min Rain = 0
KAM1 030755Z 16005KT 20/15 A302 RMK A01 T01980152  RH  075%=      5-min Rain = 0
KAM1 030756Z 16005KT 20/15 A302 RMK A01 T01970152  RH  075%=      5-min Rain = 0
KAM1 030757Z 16005KT 20/15 A3019 RMK A01 T01960152  RH  075%=      5-min Rain = 0
KAM1 030758Z 16006KT 20/15 A3019 RMK A01 T01960152  RH  076%=      5-min Rain = 0
KAM1 030759Z 16006KT 20/15 A3019 RMK A01 T01950152  RH  076%=      5-min Rain = 0
KAM1 030800Z 16006KT 19/15 A3019 RMK A01 T01940152  RH  076%=      5-min Rain = 0
KAM1 030801Z 16006KT 19/15 A3019 RMK A01 T01940152  RH  077%=      5-min Rain = 0
KAM1 030802Z 16006KT 19/15 A3019 RMK A01 T01930152  RH  077%=      5-min Rain = 0
KAM1 030803Z 16006KT 19/15 A3019 RMK A01 T01930152  RH  077%=      5-min Rain = 0
KAM1 030804Z 16006KT 19/15 A3019 RMK A01 T01920152  RH  078%=      5-min Rain = 0
KAM1 030805Z 16006KT 19/15 A3019 RMK A01 T01920152  RH  078%=      5-min Rain = 0
KAM1 030806Z 16006KT 19/15 A3019 RMK A01 T01920153  RH  078%=      5-min Rain = 0
KAM1 030807Z 17006KT 19/15 A3019 RMK A01 T01920153  RH  078%=      5-min Rain = 0
KAM1 030808Z 17006KT 19/15 A3019 RMK A01 T01920153  RH  078%=      5-min Rain = 0
KAM1 030809Z 17005KT 19/15 A3019 RMK A01 T01910153  RH  078%=      5-min Rain = 0
KAM1 030810Z 17005KT 19/15 A302 RMK A01 T01910153  RH  079%=      5-min Rain = 0
KAM1 030811Z 16006KT 19/15 A302 RMK A01 T01910153  RH  079%=      5-min Rain = 0
KAM1 030812Z 16006KT 19/15 A302 RMK A01 T01910153  RH  079%=      5-min Rain = 0
KAM1 030813Z 15007KT 19/15 A302 RMK A01 T01910154  RH  079%=      5-min Rain = 0
KAM1 030814Z 15007KT 19/15 A302 RMK A01 T01900154  RH  079%=      5-min Rain = 0
KAM1 030815Z 16008KT 19/15 A302 RMK A01 T01900154  RH  079%=      5-min Rain = 0
KAM1 030816Z 16007KT 19/15 A302 RMK A01 T01900154  RH  080%=      5-min Rain = 0
KAM1 030817Z 15007KT 19/16 A302 RMK A01 T01910155  RH  080%=      5-min Rain = 0
KAM1 030818Z 15006KT 19/16 A302 RMK A01 T01910155  RH  079%=      5-min Rain = 0
KAM1 030819Z 16007KT 19/16 A302 RMK A01 T01920155  RH  079%=      5-min Rain = 0
KAM1 030820Z 16008KT 19/16 A302 RMK A01 T01910155  RH  080%=      5-min Rain = 0
KAM1 030821Z 16008KT 19/16 A302 RMK A01 T01910156  RH  080%=      5-min Rain = 0
KAM1 030822Z 17007KT 19/16 A302 RMK A01 T01910155  RH  080%=      5-min Rain = 0
KAM1 030823Z 17007KT 19/16 A302 RMK A01 T01910156  RH  080%=      5-min Rain = 0
KAM1 030824Z 17007KT 19/16 A302 RMK A01 T01910155  RH  080%=      5-min Rain = 0
KAM1 030825Z 17007KT 19/16 A302 RMK A01 T01910155  RH  080%=      5-min Rain = 0
KAM1 030826Z 16007KT 19/16 A302 RMK A01 T01900155  RH  080%=      5-min Rain = 0
KAM1 030827Z 16007KT 19/16 A302 RMK A01 T01900156  RH  081%=      5-min Rain = 0
KAM1 030828Z 17007KT 19/16 A302 RMK A01 T01900156  RH  081%=      5-min Rain = 0
KAM1 030829Z 17007KT 19/16 A302 RMK A01 T01890156  RH  081%=      5-min Rain = 0
KAM1 030830Z 17007KT 19/16 A302 RMK A01 T01890156  RH  081%=      5-min Rain = 0
KAM1 030831Z 17008KT 19/16 A302 RMK A01 T01880156  RH  082%=      5-min Rain = 0
KAM1 030832Z 17009KT 19/16 A302 RMK A01 T01890158  RH  082%=      5-min Rain = 0
KAM1 030833Z 17009KT 19/16 A302 RMK A01 T01910158  RH  081%=      5-min Rain = 0
KAM1 030834Z 17011KT 19/16 A302 RMK A01 T01930159  RH  081%=      5-min Rain = 0
KAM1 030835Z 18010KT 19/16 A302 RMK A01 T01940159  RH  080%=      5-min Rain = 0
KAM1 030836Z 18011KT 20/16 A302 RMK A01 T01950158  RH  079%=      5-min Rain = 0
KAM1 030837Z 18010KT 20/16 A302 RMK A01 T01960158  RH  079%=      5-min Rain = 0
KAM1 030838Z 18010KT 20/16 A302 RMK A01 T01960158  RH  079%=      5-min Rain = 0
KAM1 030839Z 17010KT 20/16 A302 RMK A01 T01960158  RH  079%=      5-min Rain = 0
KAM1 030840Z 17008KT 20/16 A302 RMK A01 T01960158  RH  079%=      5-min Rain = 0
KAM1 030841Z 18009KT 20/16 A302 RMK A01 T01960158  RH  079%=      5-min Rain = 0
KAM1 030842Z 18009KT 20/16 A302 RMK A01 T01950158  RH  079%=      5-min Rain = 0
KAM1 030843Z 18009KT 20/16 A302 RMK A01 T01950158  RH  079%=      5-min Rain = 0
KAM1 030844Z 18008KT 20/16 A302 RMK A01 T01950158  RH  079%=      5-min Rain = 0
KAM1 030845Z 17009KT 20/16 A302 RMK A01 T01950158  RH  079%=      5-min Rain = 0
KAM1 030846Z 17010KT 19/16 A302 RMK A01 T01940157  RH  079%=      5-min Rain = 0
KAM1 030847Z 18009KT 19/16 A302 RMK A01 T01940157  RH  079%=      5-min Rain = 0
KAM1 030848Z 18009KT 19/16 A302 RMK A01 T01940158  RH  079%=      5-min Rain = 0
KAM1 030849Z 18009KT 19/16 A302 RMK A01 T01940158  RH  080%=      5-min Rain = 0
KAM1 030850Z 18009KT 19/16 A302 RMK A01 T01940157  RH  080%=      5-min Rain = 0
KAM1 030851Z 18009KT 19/16 A302 RMK A01 T01940157  RH  080%=      5-min Rain = 0
KAM1 030852Z 18010KT 19/16 A302 RMK A01 T01930157  RH  080%=      5-min Rain = 0
KAM1 030853Z 18008KT 19/16 A302 RMK A01 T01930157  RH  080%=      5-min Rain = 0
KAM1 030854Z 19009KT 19/16 A302 RMK A01 T01930157  RH  080%=      5-min Rain = 0
KAM1 030855Z 18008KT 19/16 A302 RMK A01 T01920157  RH  080%=      5-min Rain = 0
KAM1 030856Z 18009KT 19/16 A302 RMK A01 T01910157  RH  080%=      5-min Rain = 0
KAM1 030857Z 19009KT 19/16 A302 RMK A01 T01910158  RH  081%=      5-min Rain = 0
KAM1 030858Z 19008KT 19/16 A302 RMK A01 T01910157  RH  081%=      5-min Rain = 0
KAM1 030859Z 19008KT 19/16 A302 RMK A01 T01900157  RH  081%=      5-min Rain = 0
KAM1 030900Z 19009KT 19/16 A302 RMK A01 T01900158  RH  081%=      5-min Rain = 0
KAM1 030901Z 19009KT 19/16 A302 RMK A01 T01900158  RH  082%=      5-min Rain = 0
KAM1 030902Z 19008KT 19/16 A302 RMK A01 T01900158  RH  082%=      5-min Rain = 0
KAM1 030903Z 19009KT 19/16 A302 RMK A01 T01900158  RH  082%=      5-min Rain = 0
KAM1 030904Z 19008KT 19/16 A302 RMK A01 T01900158  RH  082%=      5-min Rain = 0
KAM1 030905Z 19008KT 19/16 A302 RMK A01 T01900158  RH  082%=      5-min Rain = 0
KAM1 030906Z 19008KT 19/16 A302 RMK A01 T01890158  RH  082%=      5-min Rain = 0
KAM1 030907Z 19007KT 19/16 A302 RMK A01 T01890158  RH  082%=      5-min Rain = 0
KAM1 030908Z 19007KT 19/16 A302 RMK A01 T01890159  RH  083%=      5-min Rain = 0
KAM1 030909Z 20006KT 19/16 A302 RMK A01 T01890158  RH  083%=      5-min Rain = 0
KAM1 030910Z 19007KT 19/16 A302 RMK A01 T01880158  RH  083%=      5-min Rain = 0
KAM1 030911Z 19006KT 19/16 A302 RMK A01 T01870158  RH  083%=      5-min Rain = 0
KAM1 030912Z 19006KT 19/16 A302 RMK A01 T01870158  RH  083%=      5-min Rain = 0
KAM1 030913Z 19005KT 19/16 A302 RMK A01 T01860158  RH  084%=      5-min Rain = 0
KAM1 030914Z 20005KT 19/16 A302 RMK A01 T01860158  RH  084%=      5-min Rain = 0
KAM1 030915Z 20005KT 19/16 A302 RMK A01 T01850158  RH  084%=      5-min Rain = 0
KAM1 030916Z 20005KT 19/16 A302 RMK A01 T01850158  RH  084%=      5-min Rain = 0
KAM1 030917Z 21005KT 18/16 A302 RMK A01 T01840158  RH  084%=      5-min Rain = 0
KAM1 030918Z 21005KT 18/16 A3019 RMK A01 T01840158  RH  085%=      5-min Rain = 0
KAM1 030919Z 21005KT 18/16 A3019 RMK A01 T01840158  RH  085%=      5-min Rain = 0
KAM1 030920Z 20005KT 18/16 A3019 RMK A01 T01840158  RH  085%=      5-min Rain = 0
KAM1 030921Z 20006KT 18/16 A302 RMK A01 T01830157  RH  085%=      5-min Rain = 0
KAM1 030922Z 19006KT 18/16 A302 RMK A01 T01820158  RH  085%=      5-min Rain = 0
KAM1 030923Z 19006KT 18/16 A302 RMK A01 T01820158  RH  086%=      5-min Rain = 0
KAM1 030924Z 19006KT 18/16 A302 RMK A01 T01810158  RH  086%=      5-min Rain = 0
KAM1 030925Z 19006KT 18/16 A302 RMK A01 T01810158  RH  087%=      5-min Rain = 0
KAM1 030926Z 20006KT 18/16 A3019 RMK A01 T01800158  RH  087%=      5-min Rain = 0
KAM1 030927Z 20006KT 18/16 A3019 RMK A01 T01800158  RH  087%=      5-min Rain = 0
KAM1 030928Z 20006KT 18/16 A3019 RMK A01 T01790158  RH  088%=      5-min Rain = 0
KAM1 030929Z 20006KT 18/16 A3019 RMK A01 T01780158  RH  088%=      5-min Rain = 0
KAM1 030930Z 21007KT 18/16 A3019 RMK A01 T01770158  RH  088%=      5-min Rain = 0
KAM1 030931Z 21006KT 18/16 A3019 RMK A01 T01770159  RH  089%=      5-min Rain = 0
KAM1 030932Z 21007KT 18/16 A3019 RMK A01 T01760159  RH  090%=      5-min Rain = 0
KAM1 030933Z 20006KT 18/16 A3019 RMK A01 T01760160  RH  090%=      5-min Rain = 0
KAM1 030934Z 20007KT 18/16 A3019 RMK A01 T01760160  RH  090%=      5-min Rain = 0
KAM1 030935Z 19007KT 18/16 A3019 RMK A01 T01760160  RH  090%=      5-min Rain = 0
KAM1 030936Z 20007KT 18/16 A3019 RMK A01 T01760161  RH  091%=      5-min Rain = 0
KAM1 030937Z 19007KT 18/16 A3019 RMK A01 T01760161  RH  091%=      5-min Rain = 0
KAM1 030938Z 19007KT 18/16 A3019 RMK A01 T01760161  RH  091%=      5-min Rain = 0
KAM1 030939Z 19007KT 18/16 A3019 RMK A01 T01760161  RH  091%=      5-min Rain = 0
KAM1 030940Z 19006KT 18/16 A3019 RMK A01 T01760161  RH  091%=      5-min Rain = 0
KAM1 030941Z 20006KT 18/16 A3019 RMK A01 T01760162  RH  091%=      5-min Rain = 0
KAM1 030942Z 20006KT 18/16 A3019 RMK A01 T01760161  RH  091%=      5-min Rain = 0
KAM1 030943Z 20006KT 18/16 A3019 RMK A01 T01760161  RH  091%=      5-min Rain = 0
KAM1 030944Z 19006KT 18/16 A3019 RMK A01 T01750160  RH  091%=      5-min Rain = 0
KAM1 030945Z 19007KT 18/16 A3018 RMK A01 T01750161  RH  091%=      5-min Rain = 0
KAM1 030946Z 19007KT 18/16 A3018 RMK A01 T01750161  RH  092%=      5-min Rain = 0
KAM1 030947Z 20006KT 18/16 A3018 RMK A01 T01750161  RH  091%=      5-min Rain = 0
KAM1 030948Z 20006KT 18/16 A3018 RMK A01 T01760161  RH  091%=      5-min Rain = 0
KAM1 030949Z 20007KT 18/16 A3018 RMK A01 T01760161  RH  091%=      5-min Rain = 0
KAM1 030950Z 21007KT 18/16 A3018 RMK A01 T01760161  RH  091%=      5-min Rain = 0
KAM1 030951Z 20007KT 18/16 A3018 RMK A01 T01770161  RH  090%=      5-min Rain = 0
KAM1 030952Z 20007KT 18/16 A3018 RMK A01 T01780161  RH  089%=      5-min Rain = 0
KAM1 030953Z 20006KT 18/16 A3018 RMK A01 T01790160  RH  089%=      5-min Rain = 0
KAM1 030954Z 20007KT 18/16 A3018 RMK A01 T01790160  RH  088%=      5-min Rain = 0
KAM1 030955Z 21008KT 18/16 A3018 RMK A01 T01790160  RH  088%=      5-min Rain = 0
KAM1 030956Z 21008KT 18/16 A3018 RMK A01 T01800160  RH  088%=      5-min Rain = 0
KAM1 030957Z 20007KT 18/16 A3018 RMK A01 T01790160  RH  088%=      5-min Rain = 0
KAM1 030958Z 20007KT 18/16 A3018 RMK A01 T01800159  RH  088%=      5-min Rain = 0
KAM1 030959Z 20007KT 18/16 A3018 RMK A01 T01800159  RH  087%=      5-min Rain = 0
KAM1 031000Z 19006KT 18/16 A3018 RMK A01 T01800159  RH  087%=      5-min Rain = 0
KAM1 031001Z 19007KT 18/16 A3018 RMK A01 T01800158  RH  087%=      5-min Rain = 0
KAM1 031002Z 19007KT 18/16 A3018 RMK A01 T01800158  RH  087%=      5-min Rain = 0
KAM1 031003Z 20008KT 18/16 A3018 RMK A01 T01800158  RH  087%=      5-min Rain = 0
KAM1 031004Z 20007KT 18/16 A3018 RMK A01 T01800158  RH  087%=      5-min Rain = 0
KAM1 031005Z 19007KT 18/16 A3018 RMK A01 T01800158  RH  087%=      5-min Rain = 0
KAM1 031006Z 19008KT 18/16 A3018 RMK A01 T01790157  RH  087%=      5-min Rain = 0
KAM1 031007Z 19008KT 18/16 A3018 RMK A01 T01800157  RH  086%=      5-min Rain = 0
KAM1 031008Z 20008KT 18/16 A3018 RMK A01 T01800156  RH  086%=      5-min Rain = 0
KAM1 031009Z 20008KT 18/16 A3018 RMK A01 T01800156  RH  086%=      5-min Rain = 0
KAM1 031010Z 20008KT 18/16 A3018 RMK A01 T01790156  RH  086%=      5-min Rain = 0
KAM1 031011Z 20008KT 18/16 A3018 RMK A01 T01790156  RH  086%=      5-min Rain = 0
KAM1 031012Z 19007KT 18/16 A3018 RMK A01 T01790156  RH  086%=      5-min Rain = 0
KAM1 031013Z 19007KT 18/16 A3018 RMK A01 T01790155  RH  086%=      5-min Rain = 0
KAM1 031014Z 19007KT 18/16 A3018 RMK A01 T01780155  RH  086%=      5-min Rain = 0
KAM1 031015Z 19008KT 18/16 A3018 RMK A01 T01770155  RH  086%=      5-min Rain = 0
KAM1 031016Z 19008KT 18/16 A3018 RMK A01 T01770155  RH  087%=      5-min Rain = 0
KAM1 031017Z 20007KT 18/16 A3018 RMK A01 T01770155  RH  087%=      5-min Rain = 0
KAM1 031018Z 20007KT 18/16 A3018 RMK A01 T01770155  RH  087%=      5-min Rain = 0
KAM1 031019Z 19007KT 18/15 A3018 RMK A01 T01770154  RH  087%=      5-min Rain = 0
KAM1 031020Z 19007KT 18/16 A3018 RMK A01 T01770155  RH  087%=      5-min Rain = 0
KAM1 031021Z 19006KT 18/15 A3018 RMK A01 T01760154  RH  087%=      5-min Rain = 0
KAM1 031022Z 19007KT 18/15 A3018 RMK A01 T01760154  RH  087%=      5-min Rain = 0
KAM1 031023Z 19006KT 18/15 A3018 RMK A01 T01760154  RH  087%=      5-min Rain = 0
KAM1 031024Z 19006KT 18/15 A3018 RMK A01 T01750154  RH  087%=      5-min Rain = 0
KAM1 031025Z 19006KT 18/15 A3018 RMK A01 T01750154  RH  087%=      5-min Rain = 0
KAM1 031026Z 19006KT 18/15 A3018 RMK A01 T01750154  RH  087%=      5-min Rain = 0
KAM1 031027Z 19007KT 18/15 A3018 RMK A01 T01750154  RH  087%=      5-min Rain = 0
KAM1 031028Z 18006KT 18/15 A3019 RMK A01 T01750154  RH  087%=      5-min Rain = 0
KAM1 031029Z 18007KT 18/15 A3019 RMK A01 T01750154  RH  087%=      5-min Rain = 0
KAM1 031030Z 18006KT 18/15 A3019 RMK A01 T01750154  RH  087%=      5-min Rain = 0
KAM1 031031Z 18007KT 18/15 A3019 RMK A01 T01750154  RH  088%=      5-min Rain = 0
KAM1 031032Z 18006KT 17/15 A3019 RMK A01 T01740154  RH  088%=      5-min Rain = 0
KAM1 031033Z 18006KT 17/15 A3019 RMK A01 T01740154  RH  088%=      5-min Rain = 0
KAM1 031034Z 18006KT 17/15 A3019 RMK A01 T01740154  RH  088%=      5-min Rain = 0
KAM1 031035Z 19006KT 17/15 A3019 RMK A01 T01730154  RH  088%=      5-min Rain = 0
KAM1 031036Z 19008KT 17/15 A3019 RMK A01 T01730154  RH  089%=      5-min Rain = 0
KAM1 031037Z 19007KT 17/16 A3019 RMK A01 T01740155  RH  089%=      5-min Rain = 0
KAM1 031038Z 19007KT 17/16 A3019 RMK A01 T01740155  RH  088%=      5-min Rain = 0
KAM1 031039Z 20006KT 17/15 A3019 RMK A01 T01740154  RH  088%=      5-min Rain = 0
KAM1 031040Z 20006KT 17/15 A3019 RMK A01 T01740154  RH  088%=      5-min Rain = 0
KAM1 031041Z 20006KT 18/16 A3019 RMK A01 T01750155  RH  088%=      5-min Rain = 0
KAM1 031042Z 20006KT 17/16 A3018 RMK A01 T01740155  RH  088%=      5-min Rain = 0
KAM1 031043Z 20006KT 17/15 A3018 RMK A01 T01740154  RH  088%=      5-min Rain = 0
KAM1 031044Z 20006KT 17/16 A3018 RMK A01 T01730155  RH  089%=      5-min Rain = 0
KAM1 031045Z 19007KT 17/16 A3018 RMK A01 T01730155  RH  089%=      5-min Rain = 0
KAM1 031046Z 19007KT 17/16 A3018 RMK A01 T01730156  RH  089%=      5-min Rain = 0
KAM1 031047Z 19006KT 17/16 A3018 RMK A01 T01730156  RH  089%=      5-min Rain = 0
KAM1 031048Z 19007KT 17/16 A3018 RMK A01 T01730155  RH  089%=      5-min Rain = 0
KAM1 031049Z 19007KT 17/16 A3018 RMK A01 T01730155  RH  089%=      5-min Rain = 0
KAM1 031050Z 20007KT 17/16 A3018 RMK A01 T01730156  RH  090%=      5-min Rain = 0
KAM1 031051Z 20007KT 17/16 A3018 RMK A01 T01730156  RH  090%=      5-min Rain = 0
KAM1 031052Z 20008KT 17/16 A3018 RMK A01 T01730157  RH  090%=      5-min Rain = 0
KAM1 031053Z 20007KT 17/16 A3018 RMK A01 T01730156  RH  090%=      5-min Rain = 0
KAM1 031054Z 20007KT 17/16 A3018 RMK A01 T01730156  RH  090%=      5-min Rain = 0
KAM1 031055Z 20007KT 17/16 A3018 RMK A01 T01730157  RH  090%=      5-min Rain = 0
KAM1 031056Z 20007KT 17/16 A3018 RMK A01 T01740157  RH  090%=      5-min Rain = 0
KAM1 031057Z 21006KT 17/16 A3019 RMK A01 T01740157  RH  090%=      5-min Rain = 0
KAM1 031058Z 20006KT 17/16 A3019 RMK A01 T01740157  RH  090%=      5-min Rain = 0
KAM1 031059Z 20006KT 17/16 A3019 RMK A01 T01740157  RH  090%=      5-min Rain = 0
KAM1 031100Z 20006KT 17/16 A3019 RMK A01 T01730158  RH  090%=      5-min Rain = 0
KAM1 031101Z 19006KT 17/16 A3019 RMK A01 T01740158  RH  091%=      5-min Rain = 0
KAM1 031102Z 19006KT 17/16 A3019 RMK A01 T01740158  RH  091%=      5-min Rain = 0
KAM1 031103Z 19007KT 17/16 A3019 RMK A01 T01730158  RH  091%=      5-min Rain = 0
KAM1 031104Z 19007KT 17/16 A3019 RMK A01 T01730159  RH  091%=      5-min Rain = 0
KAM1 031105Z 18007KT 17/16 A3019 RMK A01 T01730158  RH  091%=      5-min Rain = 0
KAM1 031106Z 19007KT 17/16 A3019 RMK A01 T01720157  RH  091%=      5-min Rain = 0
KAM1 031107Z 18007KT 17/16 A3019 RMK A01 T01710157  RH  091%=      5-min Rain = 0
KAM1 031108Z 19007KT 17/16 A3019 RMK A01 T01710159  RH  092%=      5-min Rain = 0
KAM1 031109Z 19008KT 17/16 A3019 RMK A01 T01710159  RH  093%=      5-min Rain = 0
KAM1 031110Z 19007KT 17/16 A3019 RMK A01 T01710159  RH  093%=      5-min Rain = 0
KAM1 031111Z 19006KT 17/16 A3019 RMK A01 T01720159  RH  092%=      5-min Rain = 0
KAM1 031112Z 19005KT 17/16 A3019 RMK A01 T01720159  RH  092%=      5-min Rain = 0
KAM1 031113Z 20005KT 17/16 A3019 RMK A01 T01720158  RH  092%=      5-min Rain = 0
KAM1 031114Z 20004KT 17/16 A3019 RMK A01 T01720158  RH  092%=      5-min Rain = 0
KAM1 031115Z 20004KT 17/16 A3019 RMK A01 T01710159  RH  092%=      5-min Rain = 0
KAM1 031116Z 20004KT 17/16 A3019 RMK A01 T01710159  RH  092%=      5-min Rain = 0
KAM1 031117Z 20005KT 17/16 A3019 RMK A01 T01710158  RH  092%=      5-min Rain = 0
KAM1 031118Z 20005KT 17/16 A302 RMK A01 T01710159  RH  093%=      5-min Rain = 0
KAM1 031119Z 20004KT 17/16 A302 RMK A01 T01700158  RH  093%=      5-min Rain = 0
KAM1 031120Z 20004KT 17/16 A302 RMK A01 T01700159  RH  093%=      5-min Rain = 0
KAM1 031121Z 20004KT 17/16 A302 RMK A01 T01690159  RH  093%=      5-min Rain = 0
KAM1 031122Z 20003KT 17/16 A302 RMK A01 T01690159  RH  093%=      5-min Rain = 0
KAM1 031123Z 19003KT 17/16 A302 RMK A01 T01690159  RH  094%=      5-min Rain = 0
KAM1 031124Z 19003KT 17/16 A302 RMK A01 T01690159  RH  094%=      5-min Rain = 0
KAM1 031125Z 19003KT 17/16 A302 RMK A01 T01690159  RH  094%=      5-min Rain = 0
KAM1 031126Z 19003KT 17/16 A302 RMK A01 T01680159  RH  094%=      5-min Rain = 0
KAM1 031127Z 19003KT 17/16 A302 RMK A01 T01680159  RH  094%=      5-min Rain = 0
KAM1 031128Z 20003KT 17/16 A302 RMK A01 T01680160  RH  095%=      5-min Rain = 0
KAM1 031129Z 19003KT 17/16 A302 RMK A01 T01680160  RH  095%=      5-min Rain = 0
KAM1 031130Z 19004KT 17/16 A302 RMK A01 T01680159  RH  095%=      5-min Rain = 0
KAM1 031131Z 18004KT 17/16 A302 RMK A01 T01670160  RH  095%=      5-min Rain = 0
KAM1 031132Z 18004KT 17/16 A302 RMK A01 T01670160  RH  095%=      5-min Rain = 0
KAM1 031133Z 18004KT 17/16 A302 RMK A01 T01660158  RH  095%=      5-min Rain = 0
KAM1 031134Z 18004KT 17/16 A302 RMK A01 T01650160  RH  097%=      5-min Rain = 0
KAM1 031135Z 18004KT 17/16 A3021 RMK A01 T01650162  RH  098%=      5-min Rain = 0
KAM1 031136Z 18003KT 17/16 A3021 RMK A01 T01650162  RH  098%=      5-min Rain = 0
KAM1 031137Z 18003KT 17/16 A3021 RMK A01 T01650161  RH  098%=      5-min Rain = 0
KAM1 031138Z 18003KT 16/16 A3021 RMK A01 T01640160  RH  097%=      5-min Rain = 0
KAM1 031139Z 18003KT 16/16 A3021 RMK A01 T01630159  RH  097%=      5-min Rain = 0
KAM1 031140Z 18003KT 16/16 A3021 RMK A01 T01630159  RH  098%=      5-min Rain = 0
KAM1 031141Z 17003KT 16/16 A3021 RMK A01 T01620160  RH  099%=      5-min Rain = 0
KAM1 031142Z 17003KT 16/16 A3021 RMK A01 T01620160  RH  099%=      5-min Rain = 0
KAM1 031143Z 18003KT 16/16 A3021 RMK A01 T01610161  RH  100%=      5-min Rain = 0
KAM1 031144Z 18003KT 16/16 A3021 RMK A01 T01610161  RH  100%=      5-min Rain = 0
KAM1 031145Z 19003KT 16/16 A3021 RMK A01 T01610161  RH  100%=      5-min Rain = 0
KAM1 031146Z 19003KT 16/16 A3021 RMK A01 T01610161  RH  100%=      5-min Rain = 0
KAM1 031147Z 19003KT 16/16 A3021 RMK A01 T01610161  RH  100%=      5-min Rain = 0
KAM1 031148Z 19003KT 16/16 A3021 RMK A01 T01610161  RH  100%=      5-min Rain = 0
KAM1 031149Z 19003KT 16/16 A3021 RMK A01 T01610161  RH  100%=      5-min Rain = 0
KAM1 031150Z 19003KT 16/16 A3021 RMK A01 T01610162  RH  100%=      5-min Rain = 0
KAM1 031151Z 19002KT 16/16 A3021 RMK A01 T01620162  RH  100%=      5-min Rain = 0
KAM1 031152Z 20002KT 16/16 A3021 RMK A01 T01620162  RH  100%=      5-min Rain = 0
KAM1 031153Z 22002KT 16/16 A3021 RMK A01 T01620162  RH  100%=      5-min Rain = 0
KAM1 031154Z 23002KT 16/16 A3021 RMK A01 T01620162  RH  100%=      5-min Rain = 0
KAM1 031155Z 23002KT 16/16 A302 RMK A01 T01630163  RH  100%=      5-min Rain = 0
KAM1 031156Z 22002KT 16/16 A3021 RMK A01 T01630163  RH  100%=      5-min Rain = 0
KAM1 031157Z 21002KT 16/16 A3021 RMK A01 T01640164  RH  100%=      5-min Rain = 0
KAM1 031158Z 19003KT 16/16 A3021 RMK A01 T01630163  RH  100%=      5-min Rain = 0
KAM1 031159Z 18003KT 16/16 A3021 RMK A01 T01620163  RH  100%=      5-min Rain = 0
KAM1 031200Z 18003KT 16/16 A302 RMK A01 T01620162  RH  100%=      5-min Rain = 0
KAM1 031201Z 19003KT 16/16 A302 RMK A01 T01620162  RH  100%=      5-min Rain = 0
KAM1 031202Z 19002KT 16/16 A302 RMK A01 T01620162  RH  100%=      5-min Rain = 0
KAM1 031203Z 18002KT 16/16 A302 RMK A01 T01620162  RH  100%=      5-min Rain = 0
KAM1 031204Z 17003KT 16/16 A302 RMK A01 T01620162  RH  100%=      5-min Rain = 0
KAM1 031205Z 17003KT 16/16 A302 RMK A01 T01610161  RH  100%=      5-min Rain = 0
KAM1 031206Z 17003KT 16/16 A302 RMK A01 T01610161  RH  100%=      5-min Rain = 0
KAM1 031207Z 17002KT 16/16 A302 RMK A01 T01610161  RH  100%=      5-min Rain = 0
KAM1 031208Z 17002KT 16/16 A3021 RMK A01 T01610161  RH  100%=      5-min Rain = 0
KAM1 031209Z 17002KT 16/16 A3021 RMK A01 T01610161  RH  100%=      5-min Rain = 0
KAM1 031210Z 18002KT 16/16 A302 RMK A01 T01610161  RH  100%=      5-min Rain = 0
KAM1 031211Z 18002KT 16/16 A302 RMK A01 T01610161  RH  100%=      5-min Rain = 0
KAM1 031212Z 19003KT 16/16 A3021 RMK A01 T01620162  RH  100%=      5-min Rain = 0
KAM1 031213Z 19003KT 16/16 A3021 RMK A01 T01630163  RH  100%=      5-min Rain = 0
KAM1 031214Z 19003KT 16/16 A3021 RMK A01 T01640164  RH  100%=      5-min Rain = 0
KAM1 031215Z 19003KT 17/17 A3021 RMK A01 T01650165  RH  100%=      5-min Rain = 0
KAM1 031216Z 19003KT 17/17 A3021 RMK A01 T01660166  RH  100%=      5-min Rain = 0
KAM1 031217Z 18003KT 17/17 A3021 RMK A01 T01660166  RH  100%=      5-min Rain = 0
KAM1 031218Z 18002KT 17/17 A302 RMK A01 T01670167  RH  100%=      5-min Rain = 0
KAM1 031219Z 18002KT 17/17 A302 RMK A01 T01670167  RH  100%=      5-min Rain = 0
KAM1 031220Z 18002KT 17/17 A302 RMK A01 T01680168  RH  100%=      5-min Rain = 0
KAM1 031221Z 18002KT 17/17 A302 RMK A01 T01680167  RH  099%=      5-min Rain = 0
KAM1 031222Z 17002KT 17/17 A302 RMK A01 T01680167  RH  099%=      5-min Rain = 0
KAM1 031223Z 16001KT 17/17 A302 RMK A01 T01680166  RH  098%=      5-min Rain = 0
KAM1 031224Z 14001KT 17/16 A302 RMK A01 T01680164  RH  098%=      5-min Rain = 0
KAM1 031225Z 10002KT 17/16 A302 RMK A01 T01660162  RH  097%=      5-min Rain = 0
KAM1 031226Z 09002KT 16/16 A302 RMK A01 T01640159  RH  097%=      5-min Rain = 0
KAM1 031227Z 09002KT 16/16 A302 RMK A01 T01630158  RH  097%=      5-min Rain = 0
KAM1 031228Z 09002KT 16/16 A302 RMK A01 T01610158  RH  098%=      5-min Rain = 0
KAM1 031229Z 08002KT 16/16 A302 RMK A01 T01600159  RH  099%=      5-min Rain = 0
KAM1 031230Z 07002KT 16/16 A302 RMK A01 T01600159  RH  100%=      5-min Rain = 0
KAM1 031231Z 07003KT 16/16 A302 RMK A01 T01590159  RH  100%=      5-min Rain = 0
KAM1 031232Z 07003KT 16/16 A302 RMK A01 T01580159  RH  100%=      5-min Rain = 0
KAM1 031233Z 09004KT 16/16 A302 RMK A01 T01580158  RH  100%=      5-min Rain = 0
KAM1 031234Z 10004KT 16/16 A302 RMK A01 T01590159  RH  100%=      5-min Rain = 0
KAM1 031235Z 10004KT 16/16 A302 RMK A01 T01590159  RH  100%=      5-min Rain = 0
KAM1 031236Z 11004KT 16/16 A302 RMK A01 T01600160  RH  100%=      5-min Rain = 0
KAM1 031237Z 12004KT 16/16 A302 RMK A01 T01610161  RH  100%=      5-min Rain = 0
KAM1 031238Z 12004KT 16/16 A302 RMK A01 T01620162  RH  100%=      5-min Rain = 0
KAM1 031239Z 12004KT 16/16 A302 RMK A01 T01630163  RH  100%=      5-min Rain = 0
KAM1 031240Z 12004KT 16/16 A302 RMK A01 T01630163  RH  100%=      5-min Rain = 0
KAM1 031241Z 11004KT 16/16 A302 RMK A01 T01640164  RH  100%=      5-min Rain = 0
KAM1 031242Z 11003KT 17/17 A3021 RMK A01 T01650165  RH  100%=      5-min Rain = 0
KAM1 031243Z 11003KT 17/17 A3021 RMK A01 T01660166  RH  100%=      5-min Rain = 0
KAM1 031244Z 10003KT 17/17 A3021 RMK A01 T01670167  RH  100%=      5-min Rain = 0
KAM1 031245Z 09003KT 17/17 A3021 RMK A01 T01680168  RH  100%=      5-min Rain = 0
KAM1 031246Z 09003KT 17/17 A3021 RMK A01 T01700168  RH  099%=      5-min Rain = 0
KAM1 031247Z 10004KT 17/17 A3021 RMK A01 T01710169  RH  099%=      5-min Rain = 0
KAM1 031248Z 10003KT 17/17 A3021 RMK A01 T01710169  RH  098%=      5-min Rain = 0
KAM1 031249Z 10003KT 17/17 A3021 RMK A01 T01710168  RH  098%=      5-min Rain = 0
KAM1 031250Z 11003KT 17/17 A3021 RMK A01 T01720169  RH  098%=      5-min Rain = 0
KAM1 031251Z 11003KT 17/17 A3021 RMK A01 T01730169  RH  098%=      5-min Rain = 0
KAM1 031252Z 12002KT 17/17 A3021 RMK A01 T01740169  RH  097%=      5-min Rain = 0
KAM1 031253Z 12002KT 17/17 A3021 RMK A01 T01740169  RH  096%=      5-min Rain = 0
KAM1 031254Z 13002KT 18/17 A3021 RMK A01 T01750170  RH  096%=      5-min Rain = 0
KAM1 031255Z 13002KT 18/17 A3021 RMK A01 T01770170  RH  096%=      5-min Rain = 0
KAM1 031256Z 13002KT 18/17 A3021 RMK A01 T01780171  RH  096%=      5-min Rain = 0
KAM1 031257Z 13002KT 18/17 A3021 RMK A01 T01790171  RH  095%=      5-min Rain = 0
KAM1 031258Z 12002KT 18/17 A3021 RMK A01 T01800171  RH  094%=      5-min Rain = 0
KAM1 031259Z 12002KT 18/17 A3021 RMK A01 T01810171  RH  094%=      5-min Rain = 0
KAM1 031300Z 12002KT 18/17 A3021 RMK A01 T01820171  RH  093%=      5-min Rain = 0
KAM1 031301Z 13002KT 18/17 A3021 RMK A01 T01830170  RH  092%=      5-min Rain = 0
KAM1 031302Z 13002KT 18/17 A3021 RMK A01 T01840170  RH  091%=      5-min Rain = 0
KAM1 031303Z 13003KT 19/17 A3021 RMK A01 T01850170  RH  091%=      5-min Rain = 0
KAM1 031304Z 12002KT 19/17 A3021 RMK A01 T01860169  RH  090%=      5-min Rain = 0
KAM1 031305Z 12002KT 19/17 A3021 RMK A01 T01860170  RH  090%=      5-min Rain = 0
KAM1 031306Z 13002KT 19/17 A3021 RMK A01 T01870171  RH  090%=      5-min Rain = 0
KAM1 031307Z 13003KT 19/17 A3021 RMK A01 T01880170  RH  089%=      5-min Rain = 0
KAM1 031308Z 14002KT 19/17 A3021 RMK A01 T01890169  RH  088%=      5-min Rain = 0
KAM1 031309Z 14001KT 19/17 A3021 RMK A01 T01890169  RH  088%=      5-min Rain = 0
KAM1 031310Z 13002KT 19/17 A3021 RMK A01 T01900170  RH  088%=      5-min Rain = 0
KAM1 031311Z 13003KT 19/17 A3021 RMK A01 T01900168  RH  087%=      5-min Rain = 0
KAM1 031312Z 13002KT 19/17 A3021 RMK A01 T01900171  RH  088%=      5-min Rain = 0
KAM1 031313Z 14003KT 19/17 A3021 RMK A01 T01910171  RH  088%=      5-min Rain = 0
KAM1 031314Z 15003KT 19/17 A3021 RMK A01 T01920168  RH  086%=      5-min Rain = 0
KAM1 031315Z 15003KT 19/17 A3021 RMK A01 T01930168  RH  086%=      5-min Rain = 0
KAM1 031316Z 16003KT 19/17 A3021 RMK A01 T01930167  RH  085%=      5-min Rain = 0
KAM1 031317Z 15002KT 19/17 A3021 RMK A01 T01930168  RH  085%=      5-min Rain = 0
KAM1 031318Z 15003KT 19/17 A3021 RMK A01 T01930169  RH  086%=      5-min Rain = 0
KAM1 031319Z 14003KT 19/17 A3021 RMK A01 T01940169  RH  085%=      5-min Rain = 0
KAM1 031320Z 15003KT 20/17 A3021 RMK A01 T01950167  RH  084%=      5-min Rain = 0
KAM1 031321Z 14003KT 20/17 A3021 RMK A01 T01960168  RH  084%=      5-min Rain = 0
KAM1 031322Z 13002KT 20/17 A3021 RMK A01 T01960167  RH  083%=      5-min Rain = 0
KAM1 031323Z 13002KT 20/17 A3021 RMK A01 T01970168  RH  083%=      5-min Rain = 0
KAM1 031324Z 15002KT 20/17 A3021 RMK A01 T01980169  RH  083%=      5-min Rain = 0
KAM1 031325Z 15002KT 20/17 A3021 RMK A01 T01990167  RH  082%=      5-min Rain = 0
KAM1 031326Z 16003KT 20/17 A3021 RMK A01 T02000166  RH  081%=      5-min Rain = 0
KAM1 031327Z 15003KT 20/17 A3021 RMK A01 T02000165  RH  080%=      5-min Rain = 0
KAM1 031328Z 14002KT 20/16 A3021 RMK A01 T01990164  RH  080%=      5-min Rain = 0
KAM1 031329Z 14003KT 20/17 A3021 RMK A01 T01990166  RH  081%=      5-min Rain = 0
KAM1 031330Z 14002KT 20/17 A3021 RMK A01 T01990166  RH  081%=      5-min Rain = 0
KAM1 031331Z 12005KT 20/17 A3021 RMK A01 T02000166  RH  081%=      5-min Rain = 0
KAM1 031332Z 15004KT 20/17 A3021 RMK A01 T02010165  RH  080%=      5-min Rain = 0
KAM1 031333Z 13004KT 20/17 A3021 RMK A01 T02010166  RH  080%=      5-min Rain = 0
KAM1 031334Z 12005KT 20/16 A3021 RMK A01 T02010164  RH  079%=      5-min Rain = 0
KAM1 031335Z 11005KT 20/16 A3021 RMK A01 T02020163  RH  078%=      5-min Rain = 0
KAM1 031336Z 13005KT 20/16 A3021 RMK A01 T02020160  RH  077%=      5-min Rain = 0
KAM1 031337Z 12004KT 20/16 A3021 RMK A01 T02030159  RH  076%=      5-min Rain = 0
KAM1 031338Z 12005KT 20/16 A3021 RMK A01 T02020158  RH  076%=      5-min Rain = 0
KAM1 031339Z 12005KT 20/16 A3021 RMK A01 T02020160  RH  077%=      5-min Rain = 0
KAM1 031340Z 13005KT 20/16 A3021 RMK A01 T02020160  RH  076%=      5-min Rain = 0
KAM1 031341Z 13005KT 20/16 A3021 RMK A01 T02030158  RH  075%=      5-min Rain = 0
KAM1 031342Z 11004KT 20/16 A3021 RMK A01 T02040158  RH  075%=      5-min Rain = 0
KAM1 031343Z 11004KT 20/16 A3022 RMK A01 T02040158  RH  075%=      5-min Rain = 0
KAM1 031344Z 11006KT 20/16 A3022 RMK A01 T02030157  RH  075%=      5-min Rain = 0
KAM1 031345Z 15005KT 20/16 A3022 RMK A01 T02040157  RH  074%=      5-min Rain = 0
KAM1 031346Z 16004KT 20/16 A3022 RMK A01 T02040155  RH  073%=      5-min Rain = 0
KAM1 031347Z 15004KT 20/16 A3022 RMK A01 T02040156  RH  074%=      5-min Rain = 0
KAM1 031348Z 14003KT 20/16 A3022 RMK A01 T02040156  RH  074%=      5-min Rain = 0
KAM1 031349Z 11004KT 21/16 A3022 RMK A01 T02050157  RH  074%=      5-min Rain = 0
KAM1 031350Z 13003KT 21/16 A3022 RMK A01 T02060157  RH  074%=      5-min Rain = 0
KAM1 031351Z 12004KT 21/16 A3022 RMK A01 T02070158  RH  074%=      5-min Rain = 0
KAM1 031352Z 13005KT 21/16 A3022 RMK A01 T02080157  RH  073%=      5-min Rain = 0
KAM1 031353Z 12005KT 21/16 A3022 RMK A01 T02090156  RH  072%=      5-min Rain = 0
KAM1 031354Z 15004KT 21/16 A3022 RMK A01 T02090155  RH  072%=      5-min Rain = 0
KAM1 031355Z 11004KT 21/16 A3022 RMK A01 T02080155  RH  072%=      5-min Rain = 0
KAM1 031356Z 12004KT 21/16 A3022 RMK A01 T02080155  RH  072%=      5-min Rain = 0
KAM1 031357Z 12002KT 21/16 A3022 RMK A01 T02070155  RH  072%=      5-min Rain = 0
KAM1 031358Z 13003KT 21/16 A3021 RMK A01 T02070155  RH  072%=      5-min Rain = 0
KAM1 031359Z 16005KT 21/16 A3021 RMK A01 T02080156  RH  072%=      5-min Rain = 0
KAM1 031400Z 16004KT 21/16 A3021 RMK A01 T02090156  RH  071%=      5-min Rain = 0
KAM1 031401Z 14004KT 21/15 A3021 RMK A01 T02100154  RH  070%=      5-min Rain = 0
KAM1 031402Z 13003KT 21/15 A3021 RMK A01 T02100154  RH  070%=      5-min Rain = 0
KAM1 031403Z 15004KT 21/15 A3022 RMK A01 T02100153  RH  070%=      5-min Rain = 0
KAM1 031404Z 15003KT 21/15 A3021 RMK A01 T02090153  RH  070%=      5-min Rain = 0
KAM1 031405Z 15003KT 21/15 A3021 RMK A01 T02090153  RH  070%=      5-min Rain = 0
KAM1 031406Z 14003KT 21/15 A3021 RMK A01 T02090153  RH  070%=      5-min Rain = 0
KAM1 031407Z 17003KT 21/15 A3021 RMK A01 T02100154  RH  070%=      5-min Rain = 0
KAM1 031408Z 20002KT 21/16 A3021 RMK A01 T02110155  RH  070%=      5-min Rain = 0
KAM1 031409Z 18001KT 21/15 A3021 RMK A01 T02120153  RH  069%=      5-min Rain = 0
KAM1 031410Z 18001KT 21/15 A3021 RMK A01 T02120154  RH  069%=      5-min Rain = 0
KAM1 031411Z 20004KT 21/15 A3021 RMK A01 T02130154  RH  069%=      5-min Rain = 0
KAM1 031412Z 21004KT 21/15 A3021 RMK A01 T02130153  RH  069%=      5-min Rain = 0
KAM1 031413Z 21003KT 21/15 A3021 RMK A01 T02140153  RH  068%=      5-min Rain = 0
KAM1 031414Z 24003KT 21/15 A3021 RMK A01 T02140152  RH  068%=      5-min Rain = 0
KAM1 031415Z 25003KT 21/15 A3021 RMK A01 T02140153  RH  068%=      5-min Rain = 0
KAM1 031416Z 20004KT 21/15 A3021 RMK A01 T02140153  RH  068%=      5-min Rain = 0
KAM1 031417Z 21004KT 22/15 A3021 RMK A01 T02150153  RH  068%=      5-min Rain = 0
KAM1 031418Z 22002KT 22/15 A3021 RMK A01 T02150153  RH  068%=      5-min Rain = 0
KAM1 031419Z 20004KT 22/15 A3021 RMK A01 T02150153  RH  068%=      5-min Rain = 0
KAM1 031420Z 20005KT 22/15 A3021 RMK A01 T02150151  RH  067%=      5-min Rain = 0
KAM1 031421Z 21005KT 22/15 A3021 RMK A01 T02150151  RH  067%=      5-min Rain = 0
KAM1 031422Z 22005KT 22/15 A3021 RMK A01 T02160151  RH  067%=      5-min Rain = 0
KAM1 031423Z 21004KT 22/15 A3021 RMK A01 T02160152  RH  067%=      5-min Rain = 0
KAM1 031424Z 22005KT 22/15 A3021 RMK A01 T02160152  RH  067%=      5-min Rain = 0
KAM1 031425Z 19004KT 22/15 A3021 RMK A01 T02170152  RH  067%=      5-min Rain = 0
KAM1 031426Z 21003KT 22/15 A3021 RMK A01 T02180152  RH  066%=      5-min Rain = 0
KAM1 031427Z 19005KT 22/15 A3021 RMK A01 T02180152  RH  066%=      5-min Rain = 0
KAM1 031428Z 17004KT 22/15 A3021 RMK A01 T02180152  RH  066%=      5-min Rain = 0
KAM1 031429Z 18006KT 22/15 A3021 RMK A01 T02180153  RH  066%=      5-min Rain = 0
KAM1 031430Z 19008KT 22/15 A3021 RMK A01 T02200153  RH  066%=      5-min Rain = 0
KAM1 031431Z 20006KT 22/15 A3021 RMK A01 T02220152  RH  064%=      5-min Rain = 0
KAM1 031432Z 19006KT 22/15 A3022 RMK A01 T02220152  RH  064%=      5-min Rain = 0
KAM1 031433Z 20005KT 22/15 A3022 RMK A01 T02220152  RH  064%=      5-min Rain = 0
KAM1 031434Z 22003KT 22/15 A3022 RMK A01 T02220152  RH  064%=      5-min Rain = 0
KAM1 031435Z 21002KT 22/15 A3022 RMK A01 T02210152  RH  065%=      5-min Rain = 0
KAM1 031436Z 21004KT 22/15 A3022 RMK A01 T02210153  RH  065%=      5-min Rain = 0
KAM1 031437Z 20005KT 22/15 A3022 RMK A01 T02220153  RH  065%=      5-min Rain = 0
KAM1 031438Z 19005KT 22/15 A3022 RMK A01 T02240151  RH  063%=      5-min Rain = 0
KAM1 031439Z 21006KT 22/15 A3022 RMK A01 T02240153  RH  064%=      5-min Rain = 0
KAM1 031440Z 21005KT 22/15 A3022 RMK A01 T02240154  RH  064%=      5-min Rain = 0
KAM1 031441Z 21005KT 22/15 A3022 RMK A01 T02240153  RH  064%=      5-min Rain = 0
KAM1 031442Z 20006KT 22/15 A3022 RMK A01 T02240153  RH  064%=      5-min Rain = 0
KAM1 031443Z 16006KT 23/15 A3022 RMK A01 T02250154  RH  064%=      5-min Rain = 0
KAM1 031444Z 16006KT 23/15 A3022 RMK A01 T02270154  RH  063%=      5-min Rain = 0
KAM1 031445Z 17007KT 23/15 A3022 RMK A01 T02300154  RH  062%=      5-min Rain = 0
KAM1 031446Z 17005KT 23/15 A3022 RMK A01 T02300153  RH  062%=      5-min Rain = 0
KAM1 031447Z 17003KT 23/15 A3022 RMK A01 T02290153  RH  062%=      5-min Rain = 0
KAM1 031448Z 15004KT 23/15 A3022 RMK A01 T02300153  RH  062%=      5-min Rain = 0
KAM1 031449Z 17006KT 23/15 A3022 RMK A01 T02300152  RH  061%=      5-min Rain = 0
KAM1 031450Z 20006KT 23/15 A3022 RMK A01 T02300152  RH  061%=      5-min Rain = 0
KAM1 031451Z 21007KT 23/15 A3022 RMK A01 T02300151  RH  061%=      5-min Rain = 0
KAM1 031452Z 21007KT 23/15 A3022 RMK A01 T02300150  RH  061%=      5-min Rain = 0
KAM1 031453Z 20006KT 23/15 A3021 RMK A01 T02300149  RH  060%=      5-min Rain = 0
KAM1 031454Z 22004KT 23/15 A3021 RMK A01 T02290149  RH  060%=      5-min Rain = 0
KAM1 031455Z 22002KT 23/15 A3021 RMK A01 T02270149  RH  061%=      5-min Rain = 0
KAM1 031456Z 23003KT 23/15 A3021 RMK A01 T02280151  RH  062%=      5-min Rain = 0
KAM1 031457Z 20005KT 23/15 A3021 RMK A01 T02290152  RH  062%=      5-min Rain = 0
KAM1 031458Z 21006KT 23/15 A3021 RMK A01 T02320151  RH  060%=      5-min Rain = 0
KAM1 031459Z 21004KT 23/15 A3021 RMK A01 T02330150  RH  060%=      5-min Rain = 0
KAM1 031500Z 22003KT 23/15 A3021 RMK A01 T02330151  RH  060%=      5-min Rain = 0
KAM1 031501Z 23003KT 23/15 A3021 RMK A01 T02320147  RH  059%=      5-min Rain = 0
KAM1 031502Z 22003KT 23/15 A3021 RMK A01 T02300148  RH  060%=      5-min Rain = 0
KAM1 031503Z 21004KT 23/15 A3021 RMK A01 T02300149  RH  060%=      5-min Rain = 0
KAM1 031504Z 22005KT 23/15 A3021 RMK A01 T02300150  RH  061%=      5-min Rain = 0
KAM1 031505Z 24004KT 23/15 A3021 RMK A01 T02300150  RH  061%=      5-min Rain = 0
KAM1 031506Z 18005KT 23/15 A3021 RMK A01 T02310150  RH  060%=      5-min Rain = 0
KAM1 031507Z 17004KT 23/15 A3021 RMK A01 T02330150  RH  060%=      5-min Rain = 0
KAM1 031508Z 18003KT 23/15 A3021 RMK A01 T02330149  RH  059%=      5-min Rain = 0
KAM1 031509Z 22004KT 23/15 A3021 RMK A01 T02330151  RH  060%=      5-min Rain = 0
KAM1 031510Z 18004KT 23/15 A3021 RMK A01 T02330152  RH  060%=      5-min Rain = 0
KAM1 031511Z 14001KT 23/15 A3021 RMK A01 T02340152  RH  060%=      5-min Rain = 0
KAM1 031512Z 19004KT 24/15 A3021 RMK A01 T02350153  RH  060%=      5-min Rain = 0
KAM1 031513Z 18007KT 24/15 A3021 RMK A01 T02360151  RH  059%=      5-min Rain = 0
KAM1 031514Z 21004KT 24/15 A3021 RMK A01 T02360151  RH  059%=      5-min Rain = 0
KAM1 031515Z 25004KT 24/15 A3021 RMK A01 T02350150  RH  059%=      5-min Rain = 0
KAM1 031516Z 27002KT 24/15 A3021 RMK A01 T02350149  RH  059%=      5-min Rain = 0
KAM1 031517Z 18005KT 24/15 A3021 RMK A01 T02370152  RH  059%=      5-min Rain = 0
KAM1 031518Z 19004KT 24/15 A3021 RMK A01 T02400151  RH  057%=      5-min Rain = 0
KAM1 031519Z 16003KT 24/15 A3021 RMK A01 T02400149  RH  057%=      5-min Rain = 0
KAM1 031520Z 16005KT 24/15 A3021 RMK A01 T02400150  RH  057%=      5-min Rain = 0
KAM1 031521Z 18004KT 24/15 A3021 RMK A01 T02410150  RH  057%=      5-min Rain = 0
KAM1 031522Z 18005KT 24/15 A3021 RMK A01 T02410152  RH  057%=      5-min Rain = 0
KAM1 031523Z 16005KT 24/15 A3021 RMK A01 T02430152  RH  057%=      5-min Rain = 0
KAM1 031524Z 16004KT 25/15 A3021 RMK A01 T02450150  RH  056%=      5-min Rain = 0
KAM1 031525Z 20005KT 24/15 A3021 RMK A01 T02440152  RH  056%=      5-min Rain = 0
KAM1 031526Z 21004KT 24/15 A3021 RMK A01 T02440150  RH  056%=      5-min Rain = 0
KAM1 031527Z 19002KT 24/15 A3021 RMK A01 T02430149  RH  056%=      5-min Rain = 0
KAM1 031528Z 17005KT 24/15 A3021 RMK A01 T02430150  RH  056%=      5-min Rain = 0
KAM1 031529Z 14004KT 24/15 A3021 RMK A01 T02430150  RH  056%=      5-min Rain = 0
KAM1 031530Z 16005KT 24/15 A3021 RMK A01 T02440151  RH  056%=      5-min Rain = 0
KAM1 031531Z 17005KT 25/15 A3021 RMK A01 T02460151  RH  055%=      5-min Rain = 0
KAM1 031532Z 17006KT 25/15 A3021 RMK A01 T02480152  RH  055%=      5-min Rain = 0
KAM1 031533Z 18003KT 25/15 A3021 RMK A01 T02480151  RH  055%=      5-min Rain = 0
KAM1 031534Z 17003KT 25/15 A3021 RMK A01 T02470151  RH  055%=      5-min Rain = 0
KAM1 031535Z 18004G9KT 25/15 A3021 RMK A01 T02460151  RH  055%=      5-min Rain = 0
KAM1 031536Z 18005KT 25/15 A3021 RMK A01 T02480151  RH  055%=      5-min Rain = 0
KAM1 031537Z 17007KT 25/15 A3021 RMK A01 T02520150  RH  053%=      5-min Rain = 0
KAM1 031538Z 17007KT 25/15 A3021 RMK A01 T02520150  RH  053%=      5-min Rain = 0
KAM1 031539Z 17007KT 25/15 A3021 RMK A01 T02520150  RH  053%=      5-min Rain = 0
KAM1 031540Z 19005KT 25/15 A3021 RMK A01 T02520151  RH  053%=      5-min Rain = 0
KAM1 031541Z 17005KT 25/15 A3021 RMK A01 T02520149  RH  053%=      5-min Rain = 0
KAM1 031542Z 16004KT 25/15 A3021 RMK A01 T02510148  RH  053%=      5-min Rain = 0
KAM1 031543Z 15002G7KT 25/15 A3021 RMK A01 T02480148  RH  054%=      5-min Rain = 0
KAM1 031544Z 17007KT 25/15 A3021 RMK A01 T02480149  RH  054%=      5-min Rain = 0
KAM1 031545Z 18005KT 25/15 A3021 RMK A01 T02510148  RH  053%=      5-min Rain = 0
KAM1 031546Z 16004KT 25/15 A3021 RMK A01 T02500149  RH  053%=      5-min Rain = 0
KAM1 031547Z 17006KT 25/15 A3021 RMK A01 T02500149  RH  053%=      5-min Rain = 0
KAM1 031548Z 18006KT 25/15 A3021 RMK A01 T02520149  RH  053%=      5-min Rain = 0
KAM1 031549Z 18006KT 26/15 A3021 RMK A01 T02560150  RH  052%=      5-min Rain = 0
KAM1 031550Z 18006KT 26/15 A3021 RMK A01 T02580148  RH  051%=      5-min Rain = 0
KAM1 031551Z 16008KT 26/15 A3021 RMK A01 T02590148  RH  051%=      5-min Rain = 0
KAM1 031552Z 18008KT 26/15 A3021 RMK A01 T02590147  RH  050%=      5-min Rain = 0
KAM1 031553Z 18006KT 26/15 A3021 RMK A01 T02600146  RH  050%=      5-min Rain = 0
KAM1 031554Z 17002KT 26/15 A3021 RMK A01 T02590145  RH  049%=      5-min Rain = 0
KAM1 031555Z 21004KT 26/14 A302 RMK A01 T02560144  RH  050%=      5-min Rain = 0
KAM1 031556Z 18008G16KT 26/15 A302 RMK A01 T02560145  RH  050%=      5-min Rain = 0
KAM1 031557Z 18007KT 26/15 A3021 RMK A01 T02600148  RH  050%=      5-min Rain = 0
KAM1 031558Z 19006KT 26/15 A3021 RMK A01 T02620146  RH  049%=      5-min Rain = 0
KAM1 031559Z 21005KT 26/15 A3021 RMK A01 T02620147  RH  049%=      5-min Rain = 0
KAM1 031600Z 20003KT 26/15 A3021 RMK A01 T02620146  RH  049%=      5-min Rain = 0
KAM1 031601Z 15004KT 26/15 A3021 RMK A01 T02610147  RH  049%=      5-min Rain = 0
KAM1 031602Z 12007KT 26/15 A302 RMK A01 T02630147  RH  049%=      5-min Rain = 0
KAM1 031603Z 12006KT 26/15 A3021 RMK A01 T02640147  RH  049%=      5-min Rain = 0
KAM1 031604Z 14005KT 26/15 A3021 RMK A01 T02630146  RH  049%=      5-min Rain = 0
KAM1 031605Z 21007G12KT 26/15 A302 RMK A01 T02630145  RH  048%=      5-min Rain = 0
KAM1 031606Z 22008KT 26/14 A3021 RMK A01 T02630139  RH  047%=      5-min Rain = 0
KAM1 031607Z 18006KT 26/14 A3021 RMK A01 T02620142  RH  047%=      5-min Rain = 0
KAM1 031608Z 21007KT 27/14 A3021 RMK A01 T02660143  RH  047%=      5-min Rain = 0
KAM1 031609Z 22008KT 27/14 A3021 RMK A01 T02660141  RH  046%=      5-min Rain = 0
KAM1 031610Z 22004KT 26/14 A3021 RMK A01 T02640139  RH  046%=      5-min Rain = 0
KAM1 031611Z 28000KT 26/14 A3021 RMK A01 T02610139  RH  047%=      5-min Rain = 0
KAM1 031612Z 19002G8KT 26/14 A3021 RMK A01 T02610141  RH  047%=      5-min Rain = 0
KAM1 031613Z 19007KT 26/14 A3021 RMK A01 T02630143  RH  047%=      5-min Rain = 0
KAM1 031614Z 17007KT 26/14 A3021 RMK A01 T02640143  RH  047%=      5-min Rain = 0
KAM1 031615Z 17007KT 26/14 A3021 RMK A01 T02640144  RH  048%=      5-min Rain = 0
KAM1 031616Z 18007KT 27/14 A3021 RMK A01 T02650143  RH  047%=      5-min Rain = 0
KAM1 031617Z 15004KT 26/14 A3021 RMK A01 T02620141  RH  047%=      5-min Rain = 0
KAM1 031618Z 14006KT 26/14 A3021 RMK A01 T02600141  RH  048%=      5-min Rain = 0
KAM1 031619Z 11006KT 26/14 A3021 RMK A01 T02600142  RH  048%=      5-min Rain = 0
KAM1 031620Z 09005KT 26/14 A3021 RMK A01 T02620142  RH  048%=      5-min Rain = 0
KAM1 031621Z 13004KT 27/14 A3021 RMK A01 T02650143  RH  047%=      5-min Rain = 0
KAM1 031622Z 15008KT 27/15 A3021 RMK A01 T02680145  RH  047%=      5-min Rain = 0
KAM1 031623Z 17008KT 27/15 A3021 RMK A01 T02720146  RH  046%=      5-min Rain = 0
KAM1 031624Z 15007KT 27/14 A3021 RMK A01 T02720144  RH  046%=      5-min Rain = 0
KAM1 031625Z 16007KT 27/15 A3021 RMK A01 T02700145  RH  046%=      5-min Rain = 0
KAM1 031626Z 18005KT 27/14 A3021 RMK A01 T02680144  RH  046%=      5-min Rain = 0
KAM1 031627Z 18008KT 27/14 A3021 RMK A01 T02670144  RH  047%=      5-min Rain = 0
KAM1 031628Z 18009KT 27/14 A3021 RMK A01 T02650144  RH  047%=      5-min Rain = 0
KAM1 031629Z 21005KT 27/14 A3021 RMK A01 T02650143  RH  047%=      5-min Rain = 0
KAM1 031630Z 19009KT 26/14 A3021 RMK A01 T02640144  RH  048%=      5-min Rain = 0
KAM1 031631Z 18007KT 27/14 A3021 RMK A01 T02650144  RH  047%=      5-min Rain = 0
KAM1 031632Z 19004KT 27/15 A3021 RMK A01 T02670145  RH  047%=      5-min Rain = 0
KAM1 031633Z 18003KT 27/15 A3021 RMK A01 T02680145  RH  047%=      5-min Rain = 0
KAM1 031634Z 18005G11KT 27/15 A3021 RMK A01 T02700145  RH  046%=      5-min Rain = 0
KAM1 031635Z 16009KT 27/15 A3021 RMK A01 T02720145  RH  046%=      5-min Rain = 0
KAM1 031636Z 12004KT 27/14 A3021 RMK A01 T02710143  RH  046%=      5-min Rain = 0
KAM1 031637Z 16006G11KT 27/15 A3021 RMK A01 T02700145  RH  046%=      5-min Rain = 0
KAM1 031638Z 19010KT 27/15 A3021 RMK A01 T02740146  RH  045%=      5-min Rain = 0
KAM1 031639Z 19008KT 28/14 A3021 RMK A01 T02760144  RH  044%=      5-min Rain = 0
KAM1 031640Z 19007KT 28/14 A3021 RMK A01 T02750143  RH  044%=      5-min Rain = 0
KAM1 031641Z 22005KT 27/14 A3021 RMK A01 T02720142  RH  045%=      5-min Rain = 0
KAM1 031642Z 14004KT 27/14 A3021 RMK A01 T02690142  RH  046%=      5-min Rain = 0
KAM1 031643Z 10005KT 27/14 A3021 RMK A01 T02690143  RH  046%=      5-min Rain = 0
KAM1 031644Z 11005KT 27/14 A3021 RMK A01 T02720144  RH  045%=      5-min Rain = 0
KAM1 031645Z 11004KT 27/14 A3021 RMK A01 T02740143  RH  044%=      5-min Rain = 0
KAM1 031646Z 16006KT 27/15 A3021 RMK A01 T02740145  RH  045%=      5-min Rain = 0
KAM1 031647Z 15010KT 28/15 A3021 RMK A01 T02750145  RH  045%=      5-min Rain = 0
KAM1 031648Z 13009KT 28/15 A3021 RMK A01 T02780145  RH  044%=      5-min Rain = 0
KAM1 031649Z 13005KT 28/14 A3021 RMK A01 T02770143  RH  044%=      5-min Rain = 0
KAM1 031650Z 14007KT 28/14 A3021 RMK A01 T02750144  RH  045%=      5-min Rain = 0
KAM1 031651Z 14008KT 28/14 A3021 RMK A01 T02750143  RH  044%=      5-min Rain = 0
KAM1 031652Z 16006KT 28/14 A3021 RMK A01 T02750143  RH  044%=      5-min Rain = 0
KAM1 031653Z 18004KT 28/14 A3021 RMK A01 T02750143  RH  044%=      5-min Rain = 0
KAM1 031654Z 13005KT 27/14 A3021 RMK A01 T02740143  RH  045%=      5-min Rain = 0
KAM1 031655Z 13007KT 28/14 A3021 RMK A01 T02750143  RH  044%=      5-min Rain = 0
KAM1 031656Z 15009KT 28/14 A3021 RMK A01 T02770144  RH  044%=      5-min Rain = 0
KAM1 031657Z 13009KT 28/14 A3021 RMK A01 T02780144  RH  044%=      5-min Rain = 0
KAM1 031658Z 15006KT 28/14 A3021 RMK A01 T02790144  RH  044%=      5-min Rain = 0
KAM1 031659Z 18007KT 28/14 A3021 RMK A01 T02790142  RH  043%=      5-min Rain = 0
KAM1 031700Z 14005KT 28/14 A3021 RMK A01 T02780142  RH  043%=      5-min Rain = 0
KAM1 031701Z 15003KT 28/14 A3021 RMK A01 T02770141  RH  043%=      5-min Rain = 0
KAM1 031702Z 12002KT 28/14 A3021 RMK A01 T02760142  RH  044%=      5-min Rain = 0
KAM1 031703Z 17004KT 28/14 A3021 RMK A01 T02770142  RH  044%=      5-min Rain = 0
KAM1 031704Z 19005KT 28/14 A3021 RMK A01 T02780144  RH  044%=      5-min Rain = 0
KAM1 031705Z 19007KT 28/14 A3021 RMK A01 T02790143  RH  043%=      5-min Rain = 0
KAM1 031706Z 18004KT 28/14 A3021 RMK A01 T02790144  RH  044%=      5-min Rain = 0
KAM1 031707Z 16005KT 28/14 A302 RMK A01 T02770143  RH  044%=      5-min Rain = 0
KAM1 031708Z 16008KT 28/14 A302 RMK A01 T02770143  RH  044%=      5-min Rain = 0
KAM1 031709Z 15008KT 28/14 A302 RMK A01 T02770144  RH  044%=      5-min Rain = 0
KAM1 031710Z 16009KT 28/15 A302 RMK A01 T02810145  RH  043%=      5-min Rain = 0
KAM1 031711Z 18004KT 28/14 A302 RMK A01 T02830143  RH  042%=      5-min Rain = 0
KAM1 031712Z 12004KT 28/14 A302 RMK A01 T02800142  RH  043%=      5-min Rain = 0
KAM1 031713Z 10007KT 28/14 A302 RMK A01 T02780143  RH  044%=      5-min Rain = 0
KAM1 031714Z 12005KT 28/14 A302 RMK A01 T02800144  RH  043%=      5-min Rain = 0
KAM1 031715Z 16009KT 29/15 A302 RMK A01 T02860145  RH  042%=      5-min Rain = 0
KAM1 031716Z 15007KT 29/14 A302 RMK A01 T02880143  RH  041%=      5-min Rain = 0
KAM1 031717Z 14008KT 29/14 A302 RMK A01 T02850143  RH  042%=      5-min Rain = 0
KAM1 031718Z 15007KT 28/14 A302 RMK A01 T02830143  RH  042%=      5-min Rain = 0
KAM1 031719Z 16010KT 28/14 A302 RMK A01 T02830143  RH  042%=      5-min Rain = 0
KAM1 031720Z 17007KT 28/14 A302 RMK A01 T02840142  RH  042%=      5-min Rain = 0
KAM1 031721Z 15009KT 28/14 A302 RMK A01 T02820142  RH  042%=      5-min Rain = 0
KAM1 031722Z 14008KT 28/14 A302 RMK A01 T02820143  RH  043%=      5-min Rain = 0
KAM1 031723Z 15009KT 28/14 A302 RMK A01 T02820143  RH  042%=      5-min Rain = 0
KAM1 031724Z 15012KT 28/14 A302 RMK A01 T02830143  RH  042%=      5-min Rain = 0
KAM1 031725Z 17010KT 28/14 A302 RMK A01 T02840143  RH  042%=      5-min Rain = 0
KAM1 031726Z 14006KT 28/14 A302 RMK A01 T02840143  RH  042%=      5-min Rain = 0
KAM1 031727Z 14009KT 29/14 A302 RMK A01 T02850143  RH  042%=      5-min Rain = 0
KAM1 031728Z 17009KT 29/14 A302 RMK A01 T02860143  RH  042%=      5-min Rain = 0
KAM1 031729Z 18008KT 28/14 A302 RMK A01 T02840142  RH  042%=      5-min Rain = 0
KAM1 031730Z 18008KT 28/14 A302 RMK A01 T02830143  RH  042%=      5-min Rain = 0
KAM1 031731Z 22004KT 28/14 A302 RMK A01 T02840142  RH  042%=      5-min Rain = 0
KAM1 031732Z 15009KT 28/14 A302 RMK A01 T02830143  RH  042%=      5-min Rain = 0
KAM1 031733Z 14009KT 29/14 A302 RMK A01 T02850143  RH  042%=      5-min Rain = 0
KAM1 031734Z 14007KT 29/14 A302 RMK A01 T02880143  RH  041%=      5-min Rain = 0
KAM1 031735Z 17005KT 29/14 A302 RMK A01 T02890142  RH  041%=      5-min Rain = 0
KAM1 031736Z 18003KT 28/14 A3019 RMK A01 T02840140  RH  041%=      5-min Rain = 0
KAM1 031737Z 14006G13KT 28/14 A3019 RMK A01 T02810141  RH  042%=      5-min Rain = 0
KAM1 031738Z 13008KT 28/14 A3019 RMK A01 T02830141  RH  042%=      5-min Rain = 0
KAM1 031739Z 16009KT 28/14 A3019 RMK A01 T02840142  RH  042%=      5-min Rain = 0
KAM1 031740Z 16008KT 29/14 A3019 RMK A01 T02870142  RH  041%=      5-min Rain = 0
KAM1 031741Z 17008KT 29/14 A3019 RMK A01 T02870142  RH  041%=      5-min Rain = 0
KAM1 031742Z 16006KT 29/14 A3019 RMK A01 T02870141  RH  041%=      5-min Rain = 0
KAM1 031743Z 14005KT 29/14 A3019 RMK A01 T02850140  RH  041%=      5-min Rain = 0
KAM1 031744Z 16004KT 28/14 A3019 RMK A01 T02840140  RH  042%=      5-min Rain = 0
KAM1 031745Z 13010KT 28/14 A3019 RMK A01 T02840142  RH  042%=      5-min Rain = 0
KAM1 031746Z 12007KT 29/14 A3019 RMK A01 T02850141  RH  041%=      5-min Rain = 0
KAM1 031747Z 13008KT 29/14 A3019 RMK A01 T02850142  RH  041%=      5-min Rain = 0
KAM1 031748Z 15011KT 29/14 A3019 RMK A01 T02860144  RH  042%=      5-min Rain = 0
KAM1 031749Z 16013KT 29/14 A3019 RMK A01 T02910143  RH  040%=      5-min Rain = 0
KAM1 031750Z 16011KT 29/14 A3019 RMK A01 T02910143  RH  040%=      5-min Rain = 0
KAM1 031751Z 16008KT 29/14 A3019 RMK A01 T02900142  RH  040%=      5-min Rain = 0
KAM1 031752Z 17006KT 29/14 A3019 RMK A01 T02890142  RH  041%=      5-min Rain = 0
KAM1 031753Z 15005KT 29/14 A3019 RMK A01 T02880142  RH  041%=      5-min Rain = 0
KAM1 031754Z 14006G11KT 29/14 A3019 RMK A01 T02870141  RH  041%=      5-min Rain = 0
KAM1 031755Z 11004KT 29/14 A3019 RMK A01 T02860141  RH  041%=      5-min Rain = 0
KAM1 031756Z 09005KT 29/14 A3019 RMK A01 T02870142  RH  041%=      5-min Rain = 0
KAM1 031757Z 14009KT 29/14 A3019 RMK A01 T02870142  RH  041%=      5-min Rain = 0
KAM1 031758Z 14008KT 29/14 A3019 RMK A01 T02910144  RH  041%=      5-min Rain = 0
KAM1 031759Z 13008KT 30/14 A3019 RMK A01 T02960142  RH  039%=      5-min Rain = 0
KAM1 031800Z 15010KT 30/14 A3018 RMK A01 T02960142  RH  039%=      5-min Rain = 0
KAM1 031801Z 15009KT 30/14 A3018 RMK A01 T02960142  RH  039%=      5-min Rain = 0
KAM1 031802Z 13007KT 30/14 A3018 RMK A01 T02980142  RH  039%=      5-min Rain = 0
KAM1 031803Z 14011G17KT 30/14 A3018 RMK A01 T02980142  RH  038%=      5-min Rain = 0
KAM1 031804Z 17012KT 30/14 A3019 RMK A01 T02960143  RH  039%=      5-min Rain = 0
KAM1 031805Z 18012KT 30/14 A3018 RMK A01 T02990144  RH  039%=      5-min Rain = 0
KAM1 031806Z 18011KT 30/14 A3019 RMK A01 T03000142  RH  038%=      5-min Rain = 0
KAM1 031807Z 19006KT 30/14 A3019 RMK A01 T02950141  RH  039%=      5-min Rain = 0
KAM1 031808Z 17004KT 29/14 A3018 RMK A01 T02910141  RH  040%=      5-min Rain = 0
KAM1 031809Z 14008KT 29/14 A3018 RMK A01 T02910141  RH  040%=      5-min Rain = 0
KAM1 031810Z 14006KT 29/14 A3018 RMK A01 T02920140  RH  039%=      5-min Rain = 0
KAM1 031811Z 15006KT 29/14 A3018 RMK A01 T02920141  RH  040%=      5-min Rain = 0
KAM1 031812Z 16007KT 29/14 A3018 RMK A01 T02930142  RH  040%=      5-min Rain = 0
KAM1 031813Z 17010KT 30/14 A3018 RMK A01 T02960143  RH  039%=      5-min Rain = 0
KAM1 031814Z 20008KT 30/14 A3018 RMK A01 T03010143  RH  038%=      5-min Rain = 0
KAM1 031815Z 21011KT 30/14 A3018 RMK A01 T03040141  RH  037%=      5-min Rain = 0
KAM1 031816Z 21006KT 30/14 A3018 RMK A01 T02980137  RH  037%=      5-min Rain = 0
KAM1 031817Z 20005KT 29/14 A3018 RMK A01 T02910138  RH  039%=      5-min Rain = 0
KAM1 031818Z 18006KT 29/14 A3018 RMK A01 T02910140  RH  040%=      5-min Rain = 0
KAM1 031819Z 18008KT 30/14 A3018 RMK A01 T02950142  RH  039%=      5-min Rain = 0
KAM1 031820Z 16011KT 30/14 A3018 RMK A01 T02970141  RH  038%=      5-min Rain = 0
KAM1 031821Z 16010KT 30/14 A3018 RMK A01 T02970140  RH  038%=      5-min Rain = 0
KAM1 031822Z 12005KT 30/14 A3018 RMK A01 T02950140  RH  039%=      5-min Rain = 0
KAM1 031823Z 13006KT 29/14 A3018 RMK A01 T02940140  RH  039%=      5-min Rain = 0
KAM1 031824Z 13011G16KT 29/14 A3018 RMK A01 T02940141  RH  039%=      5-min Rain = 0
KAM1 031825Z 14009KT 30/14 A3018 RMK A01 T03000142  RH  038%=      5-min Rain = 0
KAM1 031826Z 17010KT 30/14 A3018 RMK A01 T03040143  RH  037%=      5-min Rain = 0
KAM1 031827Z 17012KT 31/14 A3018 RMK A01 T03060141  RH  037%=      5-min Rain = 0
KAM1 031828Z 18011KT 30/14 A3018 RMK A01 T03030139  RH  037%=      5-min Rain = 0
KAM1 031829Z 18010KT 30/14 A3018 RMK A01 T03010139  RH  037%=      5-min Rain = 0
KAM1 031830Z 17009KT 30/14 A3018 RMK A01 T03010139  RH  037%=      5-min Rain = 0
KAM1 031831Z 16008KT 30/14 A3018 RMK A01 T03020139  RH  037%=      5-min Rain = 0
KAM1 031832Z 15008KT 30/14 A3018 RMK A01 T03010138  RH  037%=      5-min Rain = 0
KAM1 031833Z 17009KT 30/14 A3017 RMK A01 T02990138  RH  037%=      5-min Rain = 0
KAM1 031834Z 20008KT 30/14 A3017 RMK A01 T03000139  RH  037%=      5-min Rain = 0
KAM1 031835Z 23007KT 30/14 A3017 RMK A01 T03000137  RH  037%=      5-min Rain = 0
KAM1 031836Z 24004KT 30/14 A3017 RMK A01 T02950135  RH  037%=      5-min Rain = 0
KAM1 031837Z 25003KT 29/14 A3017 RMK A01 T02920136  RH  038%=      5-min Rain = 0
KAM1 031838Z 22003KT 29/14 A3017 RMK A01 T02920136  RH  038%=      5-min Rain = 0
KAM1 031839Z 12003KT 29/14 A3017 RMK A01 T02920136  RH  038%=      5-min Rain = 0
KAM1 031840Z 13008KT 29/14 A3017 RMK A01 T02930136  RH  038%=      5-min Rain = 0
KAM1 031841Z 13004KT 30/14 A3017 RMK A01 T02970137  RH  037%=      5-min Rain = 0
KAM1 031842Z 14003KT 30/14 A3017 RMK A01 T02990137  RH  037%=      5-min Rain = 0
KAM1 031843Z 12009KT 30/14 A3017 RMK A01 T02990137  RH  037%=      5-min Rain = 0
KAM1 031844Z 12007KT 30/14 A3017 RMK A01 T03000138  RH  037%=      5-min Rain = 0
KAM1 031845Z 09003KT 30/14 A3017 RMK A01 T02980138  RH  037%=      5-min Rain = 0
KAM1 031846Z 16006KT 30/14 A3017 RMK A01 T02960138  RH  038%=      5-min Rain = 0
KAM1 031847Z 19011KT 30/14 A3017 RMK A01 T02970137  RH  038%=      5-min Rain = 0
KAM1 031848Z 18010KT 30/14 A3017 RMK A01 T02980137  RH  037%=      5-min Rain = 0
KAM1 031849Z 18007KT 30/14 A3017 RMK A01 T02970138  RH  038%=      5-min Rain = 0
KAM1 031850Z 18007KT 30/14 A3017 RMK A01 T02970138  RH  038%=      5-min Rain = 0
KAM1 031851Z 17006KT 30/14 A3017 RMK A01 T02950137  RH  038%=      5-min Rain = 0
KAM1 031852Z 22001KT 29/14 A3017 RMK A01 T02910138  RH  039%=      5-min Rain = 0
KAM1 031853Z 23004G9KT 29/14 A3017 RMK A01 T02910141  RH  040%=      5-min Rain = 0
KAM1 031854Z 20006KT 30/14 A3017 RMK A01 T02960141  RH  039%=      5-min Rain = 0
KAM1 031855Z 16011KT 30/14 A3017 RMK A01 T02990140  RH  038%=      5-min Rain = 0
KAM1 031856Z 16012KT 30/14 A3017 RMK A01 T02990140  RH  038%=      5-min Rain = 0
KAM1 031857Z 18009KT 30/14 A3017 RMK A01 T03020141  RH  037%=      5-min Rain = 0
KAM1 031858Z 19005KT 30/14 A3017 RMK A01 T03030139  RH  037%=      5-min Rain = 0
KAM1 031859Z 20003KT 30/14 A3017 RMK A01 T03000138  RH  037%=      5-min Rain = 0
KAM1 031900Z 15006KT 30/14 A3017 RMK A01 T02980139  RH  038%=      5-min Rain = 0
KAM1 031901Z 15010KT 30/14 A3017 RMK A01 T02990141  RH  038%=      5-min Rain = 0
KAM1 031902Z 16010KT 30/14 A3017 RMK A01 T03040142  RH  037%=      5-min Rain = 0
KAM1 031903Z 15004KT 30/14 A3017 RMK A01 T03030141  RH  037%=      5-min Rain = 0
KAM1 031904Z 14008KT 30/14 A3017 RMK A01 T03000141  RH  038%=      5-min Rain = 0
KAM1 031905Z 14013KT 30/14 A3017 RMK A01 T03010141  RH  038%=      5-min Rain = 0
KAM1 031906Z 14011KT 30/14 A3017 RMK A01 T03040141  RH  037%=      5-min Rain = 0
KAM1 031907Z 15012KT 31/14 A3017 RMK A01 T03060141  RH  037%=      5-min Rain = 0
KAM1 031908Z 13009KT 31/14 A3017 RMK A01 T03060141  RH  037%=      5-min Rain = 0
KAM1 031909Z 15007KT 31/14 A3017 RMK A01 T03060140  RH  036%=      5-min Rain = 0
KAM1 031910Z 17003KT 31/14 A3017 RMK A01 T03060138  RH  036%=      5-min Rain = 0
KAM1 031911Z 09001KT 30/14 A3016 RMK A01 T03040139  RH  036%=      5-min Rain = 0
KAM1 031912Z 23004KT 30/14 A3016 RMK A01 T03030139  RH  037%=      5-min Rain = 0
KAM1 031913Z 18006KT 30/14 A3016 RMK A01 T03010138  RH  037%=      5-min Rain = 0
KAM1 031914Z 16009KT 30/14 A3016 RMK A01 T03000140  RH  038%=      5-min Rain = 0
KAM1 031915Z 16009KT 30/14 A3016 RMK A01 T03020140  RH  037%=      5-min Rain = 0
KAM1 031916Z 14007KT 30/14 A3016 RMK A01 T03030140  RH  037%=      5-min Rain = 0
KAM1 031917Z 13005KT 30/14 A3016 RMK A01 T03030139  RH  037%=      5-min Rain = 0
KAM1 031918Z 14007KT 30/14 A3016 RMK A01 T03040140  RH  037%=      5-min Rain = 0
KAM1 031919Z 15008KT 31/14 A3016 RMK A01 T03050138  RH  036%=      5-min Rain = 0
KAM1 031920Z 16010KT 31/14 A3016 RMK A01 T03070140  RH  036%=      5-min Rain = 0
KAM1 031921Z 16010KT 31/14 A3016 RMK A01 T03100139  RH  035%=      5-min Rain = 0
KAM1 031922Z 14006G11KT 31/14 A3016 RMK A01 T03100139  RH  035%=      5-min Rain = 0
KAM1 031923Z 12004KT 31/14 A3016 RMK A01 T03080138  RH  035%=      5-min Rain = 0
KAM1 031924Z 14007KT 30/14 A3016 RMK A01 T03040138  RH  036%=      5-min Rain = 0
KAM1 031925Z 16010KT 31/14 A3016 RMK A01 T03060140  RH  036%=      5-min Rain = 0
KAM1 031926Z 19007KT 31/14 A3016 RMK A01 T03090139  RH  035%=      5-min Rain = 0
KAM1 031927Z 19010G26KT 31/14 A3015 RMK A01 T03090138  RH  035%=      5-min Rain = 0
KAM1 031928Z 15008KT 31/14 A3016 RMK A01 T03110139  RH  035%=      5-min Rain = 0
KAM1 031929Z 15012KT 31/14 A3016 RMK A01 T03120141  RH  035%=      5-min Rain = 0
KAM1 031930Z 15008KT 31/14 A3016 RMK A01 T03120141  RH  036%=      5-min Rain = 0
KAM1 031931Z 16009KT 31/14 A3016 RMK A01 T03120142  RH  036%=      5-min Rain = 0
KAM1 031932Z 20007KT 31/14 A3015 RMK A01 T03120141  RH  035%=      5-min Rain = 0
KAM1 031933Z 15010G15KT 31/14 A3016 RMK A01 T03100142  RH  036%=      5-min Rain = 0
KAM1 031934Z 15012KT 31/15 A3015 RMK A01 T03110145  RH  036%=      5-min Rain = 0
KAM1 031935Z 16011G16KT 32/14 A3015 RMK A01 T03160144  RH  035%=      5-min Rain = 0
KAM1 031936Z 17012KT 32/14 A3015 RMK A01 T03160143  RH  035%=      5-min Rain = 0
KAM1 031937Z 16008G13KT 31/14 A3015 RMK A01 T03110140  RH  035%=      5-min Rain = 0
KAM1 031938Z 16009KT 31/14 A3015 RMK A01 T03050140  RH  036%=      5-min Rain = 0
KAM1 031939Z 16009KT 30/14 A3015 RMK A01 T03020139  RH  037%=      5-min Rain = 0
KAM1 031940Z 15007KT 30/14 A3015 RMK A01 T02990139  RH  038%=      5-min Rain = 0
KAM1 031941Z 14007KT 30/14 A3015 RMK A01 T02990141  RH  038%=      5-min Rain = 0
KAM1 031942Z 16013KT 30/14 A3015 RMK A01 T03030141  RH  037%=      5-min Rain = 0
KAM1 031943Z 15009G14KT 31/14 A3015 RMK A01 T03060141  RH  037%=      5-min Rain = 0
KAM1 031944Z 12006KT 31/14 A3015 RMK A01 T03070141  RH  036%=      5-min Rain = 0
KAM1 031945Z 12007KT 31/14 A3015 RMK A01 T03050140  RH  037%=      5-min Rain = 0
KAM1 031946Z 18007KT 31/14 A3015 RMK A01 T03080141  RH  036%=      5-min Rain = 0
KAM1 031947Z 17007KT 31/14 A3015 RMK A01 T03120140  RH  035%=      5-min Rain = 0
KAM1 031948Z 13007KT 31/14 A3015 RMK A01 T03120142  RH  036%=      5-min Rain = 0
KAM1 031949Z 12010G15KT 31/15 A3015 RMK A01 T03130145  RH  036%=      5-min Rain = 0
KAM1 031950Z 16012KT 32/15 A3015 RMK A01 T03200146  RH  035%=      5-min Rain = 0
KAM1 031951Z 17013KT 32/14 A3015 RMK A01 T03230144  RH  034%=      5-min Rain = 0
KAM1 031952Z 14008KT 32/14 A3015 RMK A01 T03220142  RH  034%=      5-min Rain = 0
KAM1 031953Z 14006KT 32/14 A3015 RMK A01 T03180142  RH  034%=      5-min Rain = 0
KAM1 031954Z 14012G17KT 31/14 A3014 RMK A01 T03140141  RH  035%=      5-min Rain = 0
KAM1 031955Z 12011KT 31/14 A3015 RMK A01 T03140141  RH  035%=      5-min Rain = 0
KAM1 031956Z 11010KT 31/14 A3015 RMK A01 T03140141  RH  035%=      5-min Rain = 0
KAM1 031957Z 12007KT 31/14 A3014 RMK A01 T03100142  RH  036%=      5-min Rain = 0
KAM1 031958Z 15007KT 31/14 A3014 RMK A01 T03130144  RH  036%=      5-min Rain = 0
KAM1 031959Z 14012KT 32/14 A3014 RMK A01 T03180142  RH  035%=      5-min Rain = 0
KAM1 032000Z 17013KT 32/14 A3014 RMK A01 T03210143  RH  034%=      5-min Rain = 0
KAM1 032001Z 18014KT 33/14 A3014 RMK A01 T03280144  RH  033%=      5-min Rain = 0
KAM1 032002Z 17011G17KT 33/14 A3014 RMK A01 T03250141  RH  033%=      5-min Rain = 0
KAM1 032003Z 16012G17KT 32/14 A3014 RMK A01 T03210140  RH  033%=      5-min Rain = 0
KAM1 032004Z 17012KT 32/14 A3014 RMK A01 T03170140  RH  034%=      5-min Rain = 0
KAM1 032005Z 14008KT 32/14 A3014 RMK A01 T03150140  RH  035%=      5-min Rain = 0
KAM1 032006Z 16011G16KT 32/14 A3014 RMK A01 T03160142  RH  035%=      5-min Rain = 0
KAM1 032007Z 17010KT 32/14 A3014 RMK A01 T03180140  RH  034%=      5-min Rain = 0
KAM1 032008Z 17008KT 32/14 A3014 RMK A01 T03170141  RH  034%=      5-min Rain = 0
KAM1 032009Z 16009KT 32/14 A3014 RMK A01 T03180142  RH  034%=      5-min Rain = 0
KAM1 032010Z 13007KT 32/14 A3014 RMK A01 T03190140  RH  034%=      5-min Rain = 0
KAM1 032011Z 16009G14KT 32/14 A3014 RMK A01 T03170143  RH  035%=      5-min Rain = 0
KAM1 032012Z 16006KT 32/14 A3014 RMK A01 T03180144  RH  035%=      5-min Rain = 0
KAM1 032013Z 15012G18KT 32/15 A3014 RMK A01 T03180145  RH  035%=      5-min Rain = 0
KAM1 032014Z 16010KT 32/15 A3014 RMK A01 T03190146  RH  035%=      5-min Rain = 0
KAM1 032015Z 15012G18KT 32/15 A3014 RMK A01 T03180146  RH  035%=      5-min Rain = 0
KAM1 032016Z 15013KT 32/15 A3014 RMK A01 T03190145  RH  035%=      5-min Rain = 0
KAM1 032017Z 14016KT 32/15 A3014 RMK A01 T03220146  RH  035%=      5-min Rain = 0
KAM1 032018Z 13014KT 32/15 A3014 RMK A01 T03220146  RH  035%=      5-min Rain = 0
KAM1 032019Z 13013KT 32/15 A3014 RMK A01 T03200146  RH  035%=      5-min Rain = 0
KAM1 032020Z 13011G17KT 32/15 A3014 RMK A01 T03170145  RH  035%=      5-min Rain = 0
KAM1 032021Z 11010G15KT 32/15 A3014 RMK A01 T03160145  RH  035%=      5-min Rain = 0
KAM1 032022Z 11009KT 32/15 A3014 RMK A01 T03180145  RH  035%=      5-min Rain = 0
KAM1 032023Z 12009KT 32/14 A3014 RMK A01 T03160144  RH  035%=      5-min Rain = 0
KAM1 032024Z 15012KT 32/15 A3014 RMK A01 T03160145  RH  036%=      5-min Rain = 0
KAM1 032025Z 16016KT 32/14 A3013 RMK A01 T03210143  RH  034%=      5-min Rain = 0
KAM1 032026Z 17012KT 32/14 A3014 RMK A01 T03220142  RH  034%=      5-min Rain = 0
KAM1 032027Z 15007G14KT 32/14 A3014 RMK A01 T03170140  RH  034%=      5-min Rain = 0
KAM1 032028Z 14008KT 31/14 A3013 RMK A01 T03120141  RH  035%=      5-min Rain = 0
KAM1 032029Z 15012KT 31/14 A3014 RMK A01 T03140142  RH  035%=      5-min Rain = 0
KAM1 032030Z 17011KT 32/14 A3013 RMK A01 T03170140  RH  034%=      5-min Rain = 0
KAM1 032031Z 16009G14KT 32/14 A3013 RMK A01 T03190141  RH  034%=      5-min Rain = 0
KAM1 032032Z 16009KT 32/14 A3013 RMK A01 T03210143  RH  034%=      5-min Rain = 0
KAM1 032033Z 15011KT 32/14 A3013 RMK A01 T03230144  RH  034%=      5-min Rain = 0
KAM1 032034Z 15013KT 32/14 A3013 RMK A01 T03190144  RH  035%=      5-min Rain = 0
KAM1 032035Z 14011KT 31/15 A3013 RMK A01 T03140146  RH  036%=      5-min Rain = 0
KAM1 032036Z 11011KT 31/15 A3013 RMK A01 T03120147  RH  037%=      5-min Rain = 0
KAM1 032037Z 11010KT 31/15 A3013 RMK A01 T03130147  RH  036%=      5-min Rain = 0
KAM1 032038Z 16019G27KT 32/15 A3013 RMK A01 T03150147  RH  036%=      5-min Rain = 0
KAM1 032039Z 18013KT 32/15 A3013 RMK A01 T03180145  RH  035%=      5-min Rain = 0
KAM1 032040Z 17010KT 32/14 A3013 RMK A01 T03180144  RH  035%=      5-min Rain = 0
KAM1 032041Z 17012KT 32/15 A3013 RMK A01 T03190146  RH  035%=      5-min Rain = 0
KAM1 032042Z 17011KT 32/15 A3013 RMK A01 T03200145  RH  035%=      5-min Rain = 0
KAM1 032043Z 16012KT 32/15 A3013 RMK A01 T03200147  RH  035%=      5-min Rain = 0
KAM1 032044Z 16011G17KT 32/15 A3013 RMK A01 T03240148  RH  035%=      5-min Rain = 0
KAM1 032045Z 15011G17KT 33/15 A3013 RMK A01 T03270146  RH  034%=      5-min Rain = 0
KAM1 032046Z 14007KT 32/15 A3013 RMK A01 T03220145  RH  034%=      5-min Rain = 0
KAM1 032047Z 14007KT 32/15 A3013 RMK A01 T03180146  RH  035%=      5-min Rain = 0
KAM1 032048Z 16007G12KT 32/15 A3012 RMK A01 T03190146  RH  035%=      5-min Rain = 0
KAM1 032049Z 16016KT 32/15 A3012 RMK A01 T03220145  RH  034%=      5-min Rain = 0
KAM1 032050Z 16015KT 33/15 A3012 RMK A01 T03260146  RH  034%=      5-min Rain = 0
KAM1 032051Z 15012KT 33/15 A3012 RMK A01 T03260145  RH  034%=      5-min Rain = 0
KAM1 032052Z 16013G22KT 32/15 A3012 RMK A01 T03220145  RH  034%=      5-min Rain = 0
KAM1 032053Z 16015G20KT 32/14 A3012 RMK A01 T03210142  RH  034%=      5-min Rain = 0
KAM1 032054Z 15010KT 32/14 A3012 RMK A01 T03190143  RH  034%=      5-min Rain = 0
KAM1 032055Z 16013KT 32/14 A3012 RMK A01 T03190144  RH  035%=      5-min Rain = 0
KAM1 032056Z 17012KT 32/14 A3012 RMK A01 T03240144  RH  034%=      5-min Rain = 0
KAM1 032057Z 17011KT 33/14 A3012 RMK A01 T03250144  RH  033%=      5-min Rain = 0
KAM1 032058Z 16015KT 33/14 A3012 RMK A01 T03260143  RH  033%=      5-min Rain = 0
KAM1 032059Z 15013KT 32/14 A3012 RMK A01 T03230139  RH  033%=      5-min Rain = 0
KAM1 032100Z 15012KT 32/14 A3012 RMK A01 T03160137  RH  034%=      5-min Rain = 0
KAM1 032101Z 16010KT 31/14 A3012 RMK A01 T03120139  RH  035%=      5-min Rain = 0
KAM1 032102Z 16011KT 32/14 A3012 RMK A01 T03150143  RH  035%=      5-min Rain = 0
KAM1 032103Z 17011KT 32/15 A3012 RMK A01 T03190146  RH  035%=      5-min Rain = 0
KAM1 032104Z 18009KT 32/14 A3012 RMK A01 T03160144  RH  035%=      5-min Rain = 0
KAM1 032105Z 18010KT 31/14 A3012 RMK A01 T03130144  RH  036%=      5-min Rain = 0
KAM1 032106Z 18007KT 31/14 A3012 RMK A01 T03100143  RH  036%=      5-min Rain = 0
KAM1 032107Z 16008KT 31/14 A3012 RMK A01 T03080143  RH  037%=      5-min Rain = 0
KAM1 032108Z 17008KT 31/14 A3012 RMK A01 T03070142  RH  037%=      5-min Rain = 0
KAM1 032109Z 15008KT 30/14 A3012 RMK A01 T03040142  RH  037%=      5-min Rain = 0
KAM1 032110Z 13009KT 30/14 A3012 RMK A01 T03030143  RH  038%=      5-min Rain = 0
KAM1 032111Z 12010G15KT 30/14 A3012 RMK A01 T03030142  RH  038%=      5-min Rain = 0
KAM1 032112Z 15010KT 30/14 A3011 RMK A01 T03020143  RH  038%=      5-min Rain = 0
KAM1 032113Z 14010G15KT 30/14 A3012 RMK A01 T03030143  RH  038%=      5-min Rain = 0
KAM1 032114Z 13012KT 30/14 A3011 RMK A01 T03030143  RH  038%=      5-min Rain = 0
KAM1 032115Z 15011KT 31/14 A3011 RMK A01 T03090144  RH  037%=      5-min Rain = 0
KAM1 032116Z 14009KT 32/15 A3011 RMK A01 T03150146  RH  036%=      5-min Rain = 0
KAM1 032117Z 14013KT 32/15 A3011 RMK A01 T03200146  RH  035%=      5-min Rain = 0
KAM1 032118Z 14013KT 32/15 A3011 RMK A01 T03190147  RH  035%=      5-min Rain = 0
KAM1 032119Z 15011KT 32/15 A3011 RMK A01 T03170147  RH  036%=      5-min Rain = 0
KAM1 032120Z 15015KT 32/15 A3011 RMK A01 T03160147  RH  036%=      5-min Rain = 0
KAM1 032121Z 15015G20KT 32/15 A3011 RMK A01 T03150147  RH  036%=      5-min Rain = 0
KAM1 032122Z 15016KT 32/15 A3011 RMK A01 T03150147  RH  036%=      5-min Rain = 0
KAM1 032123Z 13014KT 31/15 A3011 RMK A01 T03140145  RH  036%=      5-min Rain = 0
KAM1 032124Z 14013KT 31/15 A3011 RMK A01 T03120145  RH  036%=      5-min Rain = 0
KAM1 032125Z 14014KT 31/15 A3011 RMK A01 T03100146  RH  037%=      5-min Rain = 0
KAM1 032126Z 16017G22KT 31/15 A3011 RMK A01 T03120147  RH  037%=      5-min Rain = 0
KAM1 032127Z 15015KT 32/15 A3011 RMK A01 T03160146  RH  036%=      5-min Rain = 0
KAM1 032128Z 17011KT 32/15 A3011 RMK A01 T03200147  RH  035%=      5-min Rain = 0
KAM1 032129Z 18012G17KT 32/15 A3011 RMK A01 T03220148  RH  035%=      5-min Rain = 0
KAM1 032130Z 19015KT 32/14 A3011 RMK A01 T03230143  RH  034%=      5-min Rain = 0
KAM1 032131Z 18012KT 32/14 A3011 RMK A01 T03200141  RH  034%=      5-min Rain = 0
KAM1 032132Z 16009KT 32/14 A3011 RMK A01 T03180140  RH  034%=      5-min Rain = 0
KAM1 032133Z 18009KT 32/14 A3011 RMK A01 T03160140  RH  034%=      5-min Rain = 0
KAM1 032134Z 19008KT 32/14 A301 RMK A01 T03190141  RH  034%=      5-min Rain = 0
KAM1 032135Z 18010G15KT 32/14 A301 RMK A01 T03230142  RH  033%=      5-min Rain = 0
KAM1 032136Z 18013KT 33/14 A301 RMK A01 T03260140  RH  032%=      5-min Rain = 0
KAM1 032137Z 17014KT 33/14 A301 RMK A01 T03260138  RH  032%=      5-min Rain = 0
KAM1 032138Z 18013KT 33/14 A301 RMK A01 T03250136  RH  032%=      5-min Rain = 0
KAM1 032139Z 18013KT 32/14 A301 RMK A01 T03220137  RH  032%=      5-min Rain = 0
KAM1 032140Z 17011KT 32/14 A301 RMK A01 T03220137  RH  033%=      5-min Rain = 0
KAM1 032141Z 18009KT 32/14 A301 RMK A01 T03240137  RH  032%=      5-min Rain = 0
KAM1 032142Z 18008G13KT 32/14 A301 RMK A01 T03240137  RH  032%=      5-min Rain = 0
KAM1 032143Z 18010KT 32/14 A301 RMK A01 T03230138  RH  032%=      5-min Rain = 0
KAM1 032144Z 16009KT 32/14 A301 RMK A01 T03230140  RH  033%=      5-min Rain = 0
KAM1 032145Z 16016KT 33/14 A301 RMK A01 T03270143  RH  033%=      5-min Rain = 0
KAM1 032146Z 15013G19KT 33/14 A301 RMK A01 T03280144  RH  033%=      5-min Rain = 0
KAM1 032147Z 16013KT 33/14 A301 RMK A01 T03280143  RH  033%=      5-min Rain = 0
KAM1 032148Z 15014KT 33/14 A301 RMK A01 T03280142  RH  033%=      5-min Rain = 0
KAM1 032149Z 15013KT 33/14 A301 RMK A01 T03250139  RH  033%=      5-min Rain = 0
KAM1 032150Z 17013KT 32/14 A301 RMK A01 T03210139  RH  033%=      5-min Rain = 0
KAM1 032151Z 17012KT 32/14 A301 RMK A01 T03170137  RH  034%=      5-min Rain = 0
KAM1 032152Z 16013KT 31/14 A301 RMK A01 T03140136  RH  034%=      5-min Rain = 0
KAM1 032153Z 17013KT 31/14 A301 RMK A01 T03110136  RH  034%=      5-min Rain = 0
KAM1 032154Z 17008KT 31/14 A301 RMK A01 T03090137  RH  035%=      5-min Rain = 0
KAM1 032155Z 16005KT 31/14 A301 RMK A01 T03070137  RH  035%=      5-min Rain = 0
KAM1 032156Z 16007KT 31/14 A301 RMK A01 T03100139  RH  035%=      5-min Rain = 0
KAM1 032157Z 15007KT 31/14 A301 RMK A01 T03120138  RH  035%=      5-min Rain = 0
KAM1 032158Z 14007KT 32/14 A301 RMK A01 T03170140  RH  034%=      5-min Rain = 0
KAM1 032159Z 14013KT 32/14 A301 RMK A01 T03190139  RH  034%=      5-min Rain = 0
KAM1 032200Z 14010KT 32/14 A301 RMK A01 T03190138  RH  033%=      5-min Rain = 0
KAM1 032201Z 16010G15KT 32/14 A301 RMK A01 T03160137  RH  034%=      5-min Rain = 0
KAM1 032202Z 16011KT 31/14 A301 RMK A01 T03140135  RH  034%=      5-min Rain = 0
KAM1 032203Z 15007KT 31/14 A301 RMK A01 T03140135  RH  034%=      5-min Rain = 0
KAM1 032204Z 16008KT 32/14 A301 RMK A01 T03160138  RH  034%=      5-min Rain = 0
KAM1 032205Z 17008KT 32/14 A301 RMK A01 T03180136  RH  033%=      5-min Rain = 0
KAM1 032206Z 18008KT 32/14 A301 RMK A01 T03170135  RH  033%=      5-min Rain = 0
KAM1 032207Z 17008KT 32/14 A301 RMK A01 T03170135  RH  033%=      5-min Rain = 0
KAM1 032208Z 16012KT 32/14 A301 RMK A01 T03210139  RH  033%=      5-min Rain = 0
KAM1 032209Z 17014KT 33/14 A301 RMK A01 T03270139  RH  032%=      5-min Rain = 0
KAM1 032210Z 17014KT 33/14 A301 RMK A01 T03270137  RH  032%=      5-min Rain = 0
KAM1 032211Z 18012KT 33/14 A301 RMK A01 T03250137  RH  032%=      5-min Rain = 0
KAM1 032212Z 17016KT 33/14 A301 RMK A01 T03250138  RH  032%=      5-min Rain = 0
KAM1 032213Z 15013KT 33/14 A301 RMK A01 T03260136  RH  032%=      5-min Rain = 0
KAM1 032214Z 16012KT 33/14 A301 RMK A01 T03270136  RH  032%=      5-min Rain = 0
KAM1 032215Z 16012KT 33/14 A301 RMK A01 T03260136  RH  032%=      5-min Rain = 0
KAM1 032216Z 17010KT 32/14 A301 RMK A01 T03240135  RH  032%=      5-min Rain = 0
KAM1 032217Z 16009KT 32/14 A301 RMK A01 T03230136  RH  032%=      5-min Rain = 0
KAM1 032218Z 14014KT 33/14 A3009 RMK A01 T03270137  RH  032%=      5-min Rain = 0
KAM1 032219Z 14013KT 33/14 A3009 RMK A01 T03290136  RH  031%=      5-min Rain = 0
KAM1 032220Z 15013KT 33/14 A3009 RMK A01 T03270136  RH  032%=      5-min Rain = 0
KAM1 032221Z 16013KT 33/14 A3009 RMK A01 T03280138  RH  032%=      5-min Rain = 0
KAM1 032222Z 14012KT 33/14 A3009 RMK A01 T03290137  RH  031%=      5-min Rain = 0
KAM1 032223Z 13012KT 33/14 A3009 RMK A01 T03280136  RH  031%=      5-min Rain = 0
KAM1 032224Z 15015KT 33/14 A3009 RMK A01 T03260137  RH  032%=      5-min Rain = 0
KAM1 032225Z 16014KT 32/14 A3009 RMK A01 T03230136  RH  032%=      5-min Rain = 0
KAM1 032226Z 17012KT 32/14 A3009 RMK A01 T03170135  RH  033%=      5-min Rain = 0
KAM1 032227Z 18015KT 32/14 A3009 RMK A01 T03150136  RH  034%=      5-min Rain = 0
KAM1 032228Z 17012KT 32/14 A3009 RMK A01 T03160136  RH  033%=      5-min Rain = 0
KAM1 032229Z 18011KT 32/14 A3009 RMK A01 T03160136  RH  033%=      5-min Rain = 0
KAM1 032230Z 19011G16KT 32/14 A3009 RMK A01 T03160137  RH  034%=      5-min Rain = 0
KAM1 032231Z 18012KT 32/14 A3009 RMK A01 T03160136  RH  034%=      5-min Rain = 0
KAM1 032232Z 18011KT 31/14 A3009 RMK A01 T03140135  RH  034%=      5-min Rain = 0
KAM1 032233Z 18009KT 31/14 A3009 RMK A01 T03120136  RH  034%=      5-min Rain = 0
KAM1 032234Z 15011G17KT 31/14 A3009 RMK A01 T03130137  RH  034%=      5-min Rain = 0
KAM1 032235Z 16013KT 32/14 A3009 RMK A01 T03150137  RH  034%=      5-min Rain = 0
KAM1 032236Z 15012KT 31/14 A3009 RMK A01 T03140136  RH  034%=      5-min Rain = 0
KAM1 032237Z 15014KT 31/14 A3009 RMK A01 T03140137  RH  034%=      5-min Rain = 0
KAM1 032238Z 16015KT 31/14 A3009 RMK A01 T03140137  RH  034%=      5-min Rain = 0
KAM1 032239Z 17015KT 32/14 A3009 RMK A01 T03150137  RH  034%=      5-min Rain = 0
KAM1 032240Z 16014KT 32/14 A3009 RMK A01 T03150137  RH  034%=      5-min Rain = 0
KAM1 032241Z 14014KT 32/14 A3009 RMK A01 T03150137  RH  034%=      5-min Rain = 0
KAM1 032242Z 15012KT 31/14 A3009 RMK A01 T03140137  RH  034%=      5-min Rain = 0
KAM1 032243Z 15013KT 32/14 A3009 RMK A01 T03150137  RH  034%=      5-min Rain = 0
KAM1 032244Z 15011KT 32/14 A3009 RMK A01 T03150137  RH  034%=      5-min Rain = 0
KAM1 032245Z 14012KT 32/14 A3009 RMK A01 T03170137  RH  034%=      5-min Rain = 0
KAM1 032246Z 15011KT 32/14 A3009 RMK A01 T03180138  RH  033%=      5-min Rain = 0
KAM1 032247Z 15014KT 32/14 A3009 RMK A01 T03210138  RH  033%=      5-min Rain = 0
KAM1 032248Z 14012G17KT 32/14 A3009 RMK A01 T03230137  RH  032%=      5-min Rain = 0
KAM1 032249Z 14013KT 32/14 A3009 RMK A01 T03210136  RH  032%=      5-min Rain = 0
KAM1 032250Z 14011KT 32/14 A3009 RMK A01 T03180135  RH  033%=      5-min Rain = 0
KAM1 032251Z 14010KT 31/13 A3009 RMK A01 T03140134  RH  033%=      5-min Rain = 0
KAM1 032252Z 15011KT 31/14 A3009 RMK A01 T03110135  RH  034%=      5-min Rain = 0
KAM1 032253Z 14014KT 31/14 A3009 RMK A01 T03100135  RH  034%=      5-min Rain = 0
KAM1 032254Z 15015KT 31/14 A3009 RMK A01 T03090135  RH  035%=      5-min Rain = 0
KAM1 032255Z 15015KT 31/14 A3009 RMK A01 T03090135  RH  035%=      5-min Rain = 0
KAM1 032256Z 16015KT 31/13 A3009 RMK A01 T03080134  RH  035%=      5-min Rain = 0
KAM1 032257Z 16013KT 31/13 A3009 RMK A01 T03080134  RH  035%=      5-min Rain = 0
KAM1 032258Z 16012KT 31/13 A3009 RMK A01 T03090134  RH  034%=      5-min Rain = 0
KAM1 032259Z 16012KT 31/14 A3009 RMK A01 T03120135  RH  034%=      5-min Rain = 0
KAM1 032300Z 16012KT 31/13 A3009 RMK A01 T03130134  RH  034%=      5-min Rain = 0
KAM1 032301Z 16011KT 32/14 A3009 RMK A01 T03150135  RH  033%=      5-min Rain = 0
KAM1 032302Z 16012KT 32/14 A3009 RMK A01 T03170135  RH  033%=      5-min Rain = 0
KAM1 032303Z 17013KT 32/13 A3009 RMK A01 T03170134  RH  033%=      5-min Rain = 0
KAM1 032304Z 17010KT 32/13 A3009 RMK A01 T03160133  RH  033%=      5-min Rain = 0
KAM1 032305Z 16010KT 31/13 A3008 RMK A01 T03120132  RH  033%=      5-min Rain = 0
KAM1 032306Z 16010KT 31/13 A3008 RMK A01 T03100131  RH  033%=      5-min Rain = 0
KAM1 032307Z 17010KT 31/13 A3008 RMK A01 T03080131  RH  034%=      5-min Rain = 0
KAM1 032308Z 17010KT 31/13 A3008 RMK A01 T03070130  RH  034%=      5-min Rain = 0
KAM1 032309Z 17010KT 31/13 A3008 RMK A01 T03050130  RH  034%=      5-min Rain = 0
KAM1 032310Z 18008KT 30/13 A3008 RMK A01 T03040130  RH  035%=      5-min Rain = 0
KAM1 032311Z 17007KT 30/13 A3008 RMK A01 T03040131  RH  035%=      5-min Rain = 0
KAM1 032312Z 15010KT 30/13 A3008 RMK A01 T03040132  RH  035%=      5-min Rain = 0
KAM1 032313Z 16013KT 31/14 A3008 RMK A01 T03050135  RH  035%=      5-min Rain = 0
KAM1 032314Z 15012KT 31/14 A3008 RMK A01 T03080136  RH  035%=      5-min Rain = 0
KAM1 032315Z 14012KT 31/14 A3008 RMK A01 T03110137  RH  035%=      5-min Rain = 0
KAM1 032316Z 14014KT 32/14 A3008 RMK A01 T03160139  RH  034%=      5-min Rain = 0
KAM1 032317Z 15015KT 32/14 A3008 RMK A01 T03190139  RH  033%=      5-min Rain = 0
KAM1 032318Z 16017KT 32/14 A3008 RMK A01 T03220138  RH  033%=      5-min Rain = 0
KAM1 032319Z 16014KT 32/14 A3008 RMK A01 T03220137  RH  033%=      5-min Rain = 0
KAM1 032320Z 16013KT 32/14 A3008 RMK A01 T03220137  RH  033%=      5-min Rain = 0
KAM1 032321Z 16011KT 32/14 A3008 RMK A01 T03220136  RH  032%=      5-min Rain = 0
KAM1 032322Z 16010KT 32/14 A3008 RMK A01 T03200135  RH  033%=      5-min Rain = 0
KAM1 032323Z 15009KT 32/14 A3008 RMK A01 T03200136  RH  033%=      5-min Rain = 0
KAM1 032324Z 14012KT 32/14 A3008 RMK A01 T03220137  RH  032%=      5-min Rain = 0
KAM1 032325Z 15012KT 32/14 A3008 RMK A01 T03230136  RH  032%=      5-min Rain = 0
KAM1 032326Z 17012G17KT 32/14 A3008 RMK A01 T03230135  RH  032%=      5-min Rain = 0
KAM1 032327Z 17011KT 32/13 A3008 RMK A01 T03220134  RH  032%=      5-min Rain = 0
KAM1 032328Z 17008KT 32/13 A3008 RMK A01 T03210134  RH  032%=      5-min Rain = 0
KAM1 032329Z 17011KT 32/14 A3007 RMK A01 T03220135  RH  032%=      5-min Rain = 0
KAM1 032330Z 17012KT 32/14 A3007 RMK A01 T03240135  RH  032%=      5-min Rain = 0
KAM1 032331Z 16014KT 33/14 A3007 RMK A01 T03270137  RH  032%=      5-min Rain = 0
KAM1 032332Z 17012G17KT 33/14 A3007 RMK A01 T03280137  RH  031%=      5-min Rain = 0
KAM1 032333Z 18014KT 33/14 A3007 RMK A01 T03280137  RH  032%=      5-min Rain = 0
KAM1 032334Z 16014KT 33/14 A3007 RMK A01 T03250136  RH  032%=      5-min Rain = 0
KAM1 032335Z 16010KT 32/14 A3007 RMK A01 T03220136  RH  032%=      5-min Rain = 0
KAM1 032336Z 15011KT 32/14 A3008 RMK A01 T03210137  RH  033%=      5-min Rain = 0
KAM1 032337Z 16010KT 32/14 A3007 RMK A01 T03230136  RH  032%=      5-min Rain = 0
KAM1 032338Z 16009KT 32/14 A3007 RMK A01 T03210136  RH  032%=      5-min Rain = 0
KAM1 032339Z 16009KT 32/14 A3007 RMK A01 T03200136  RH  033%=      5-min Rain = 0
KAM1 032340Z 16010KT 32/14 A3007 RMK A01 T03200136  RH  033%=      5-min Rain = 0
KAM1 032341Z 15011KT 32/14 A3007 RMK A01 T03190136  RH  033%=      5-min Rain = 0
KAM1 032342Z 16013KT 32/14 A3007 RMK A01 T03170136  RH  033%=      5-min Rain = 0
KAM1 032343Z 17012KT 32/14 A3007 RMK A01 T03160135  RH  033%=      5-min Rain = 0
KAM1 032344Z 16009KT 31/14 A3007 RMK A01 T03130135  RH  034%=      5-min Rain = 0
KAM1 032345Z 17012KT 31/14 A3007 RMK A01 T03130136  RH  034%=      5-min Rain = 0
KAM1 032346Z 16013KT 32/14 A3007 RMK A01 T03180136  RH  033%=      5-min Rain = 0
KAM1 032347Z 15014G19KT 32/14 A3007 RMK A01 T03180135  RH  033%=      5-min Rain = 0
KAM1 032348Z 15011KT 32/14 A3007 RMK A01 T03170135  RH  033%=      5-min Rain = 0
KAM1 032349Z 15010KT 32/14 A3007 RMK A01 T03160135  RH  033%=      5-min Rain = 0
KAM1 032350Z 15009KT 32/14 A3007 RMK A01 T03160136  RH  033%=      5-min Rain = 0
KAM1 032351Z 14009KT 32/14 A3007 RMK A01 T03200137  RH  033%=      5-min Rain = 0
KAM1 032352Z 15009KT 32/14 A3007 RMK A01 T03230138  RH  032%=      5-min Rain = 0
KAM1 032353Z 15011KT 32/14 A3007 RMK A01 T03230137  RH  032%=      5-min Rain = 0
KAM1 032354Z 15011KT 32/14 A3007 RMK A01 T03210136  RH  033%=      5-min Rain = 0
KAM1 032355Z 16011KT 32/14 A3007 RMK A01 T03200136  RH  033%=      5-min Rain = 0
KAM1 032356Z 16013KT 32/14 A3007 RMK A01 T03180135  RH  033%=      5-min Rain = 0
KAM1 032357Z 16013KT 32/14 A3007 RMK A01 T03150135  RH  033%=      5-min Rain = 0
KAM1 032358Z 17013KT 32/14 A3007 RMK A01 T03150135  RH  033%=      5-min Rain = 0
KAM1 032359Z 16010KT 32/14 A3007 RMK A01 T03150135  RH  033%=      5-min Rain = 0
KAM1 040000Z 15011KT 32/14 A3007 RMK A01 T03160135  RH  033%=      5-min Rain = 0
KAM1 040001Z 14010KT 32/14 A3007 RMK A01 T03180136  RH  033%=      5-min Rain = 0
KAM1 040002Z 17009KT 32/14 A3007 RMK A01 T03190136  RH  033%=      5-min Rain = 0
KAM1 040003Z 17008KT 32/14 A3007 RMK A01 T03200135  RH  033%=      5-min Rain = 0
KAM1 040004Z 20009KT 32/14 A3007 RMK A01 T03200135  RH  033%=      5-min Rain = 0
KAM1 040005Z 19009KT 32/13 A3007 RMK A01 T03200133  RH  032%=      5-min Rain = 0
KAM1 040006Z 18010KT 32/13 A3007 RMK A01 T03200133  RH  032%=      5-min Rain = 0
KAM1 040007Z 19009KT 32/13 A3007 RMK A01 T03190132  RH  032%=      5-min Rain = 0
KAM1 040008Z 19012KT 32/13 A3007 RMK A01 T03150130  RH  032%=      5-min Rain = 0
KAM1 040009Z 19012KT 31/13 A3007 RMK A01 T03120130  RH  033%=      5-min Rain = 0
KAM1 040010Z 19010KT 31/13 A3007 RMK A01 T03100130  RH  033%=      5-min Rain = 0
KAM1 040011Z 18011KT 31/13 A3007 RMK A01 T03090130  RH  033%=      5-min Rain = 0
KAM1 040012Z 19010KT 31/13 A3007 RMK A01 T03080130  RH  034%=      5-min Rain = 0
KAM1 040013Z 19008KT 31/13 A3007 RMK A01 T03070131  RH  034%=      5-min Rain = 0
KAM1 040014Z 19007KT 31/13 A3007 RMK A01 T03090133  RH  034%=      5-min Rain = 0
KAM1 040015Z 18012KT 31/13 A3007 RMK A01 T03120133  RH  033%=      5-min Rain = 0
KAM1 040016Z 18010KT 31/13 A3007 RMK A01 T03130131  RH  033%=      5-min Rain = 0
KAM1 040017Z 18009KT 31/13 A3007 RMK A01 T03130131  RH  033%=      5-min Rain = 0
KAM1 040018Z 18007KT 31/13 A3007 RMK A01 T03130131  RH  033%=      5-min Rain = 0
KAM1 040019Z 18008KT 31/13 A3007 RMK A01 T03120131  RH  033%=      5-min Rain = 0
KAM1 040020Z 18009KT 31/13 A3007 RMK A01 T03130132  RH  033%=      5-min Rain = 0
KAM1 040021Z 16012KT 31/13 A3007 RMK A01 T03140134  RH  033%=      5-min Rain = 0
KAM1 040022Z 17013KT 31/13 A3007 RMK A01 T03140134  RH  033%=      5-min Rain = 0
KAM1 040023Z 16012KT 31/13 A3007 RMK A01 T03130134  RH  034%=      5-min Rain = 0
KAM1 040024Z 16008KT 31/13 A3007 RMK A01 T03130134  RH  034%=      5-min Rain = 0
KAM1 040025Z 16009KT 31/13 A3007 RMK A01 T03130134  RH  034%=      5-min Rain = 0
KAM1 040026Z 17010G17KT 31/14 A3007 RMK A01 T03140135  RH  034%=      5-min Rain = 0
KAM1 040027Z 18014KT 31/14 A3007 RMK A01 T03130135  RH  034%=      5-min Rain = 0
KAM1 040028Z 17015KT 31/14 A3007 RMK A01 T03140136  RH  034%=      5-min Rain = 0
KAM1 040029Z 16013KT 31/14 A3007 RMK A01 T03130135  RH  034%=      5-min Rain = 0
KAM1 040030Z 15012KT 31/14 A3008 RMK A01 T03110135  RH  034%=      5-min Rain = 0
KAM1 040031Z 16011KT 31/14 A3008 RMK A01 T03100136  RH  034%=      5-min Rain = 0
KAM1 040032Z 17011KT 31/14 A3008 RMK A01 T03100135  RH  034%=      5-min Rain = 0
KAM1 040033Z 16011KT 31/14 A3008 RMK A01 T03100136  RH  035%=      5-min Rain = 0
KAM1 040034Z 16012KT 31/14 A3008 RMK A01 T03100136  RH  035%=      5-min Rain = 0
KAM1 040035Z 16012KT 31/14 A3008 RMK A01 T03100136  RH  035%=      5-min Rain = 0
KAM1 040036Z 15011KT 31/14 A3008 RMK A01 T03090136  RH  035%=      5-min Rain = 0
KAM1 040037Z 15013KT 31/14 A3008 RMK A01 T03070137  RH  035%=      5-min Rain = 0
KAM1 040038Z 15012KT 31/14 A3008 RMK A01 T03070137  RH  035%=      5-min Rain = 0
KAM1 040039Z 16013KT 31/14 A3008 RMK A01 T03070138  RH  036%=      5-min Rain = 0
KAM1 040040Z 16012KT 31/14 A3008 RMK A01 T03070137  RH  036%=      5-min Rain = 0
KAM1 040041Z 16013KT 31/14 A3008 RMK A01 T03070138  RH  036%=      5-min Rain = 0
KAM1 040042Z 16012KT 31/14 A3008 RMK A01 T03070138  RH  036%=      5-min Rain = 0
KAM1 040043Z 16013KT 31/14 A3008 RMK A01 T03060138  RH  036%=      5-min Rain = 0
KAM1 040044Z 15011KT 31/14 A3008 RMK A01 T03050137  RH  036%=      5-min Rain = 0
KAM1 040045Z 15012KT 30/14 A3008 RMK A01 T03040138  RH  036%=      5-min Rain = 0
KAM1 040046Z 14013KT 30/14 A3008 RMK A01 T03040138  RH  036%=      5-min Rain = 0
KAM1 040047Z 13014KT 30/14 A3008 RMK A01 T03030138  RH  036%=      5-min Rain = 0
KAM1 040048Z 15014KT 30/14 A3008 RMK A01 T03020138  RH  037%=      5-min Rain = 0
KAM1 040049Z 16013KT 30/14 A3008 RMK A01 T03020138  RH  037%=      5-min Rain = 0
KAM1 040050Z 17010KT 30/14 A3008 RMK A01 T03000137  RH  037%=      5-min Rain = 0
KAM1 040051Z 18011G16KT 30/14 A3008 RMK A01 T03000138  RH  037%=      5-min Rain = 0
KAM1 040052Z 18013KT 30/14 A3008 RMK A01 T02990138  RH  037%=      5-min Rain = 0
KAM1 040053Z 18013KT 30/14 A3008 RMK A01 T02990138  RH  038%=      5-min Rain = 0
KAM1 040054Z 18012KT 30/14 A3008 RMK A01 T02980138  RH  038%=      5-min Rain = 0
KAM1 040055Z 17011KT 30/14 A3008 RMK A01 T02970138  RH  038%=      5-min Rain = 0
KAM1 040056Z 17012KT 30/14 A3008 RMK A01 T02960138  RH  038%=      5-min Rain = 0
KAM1 040057Z 17012KT 30/14 A3008 RMK A01 T02960137  RH  038%=      5-min Rain = 0
KAM1 040058Z 17012KT 30/14 A3008 RMK A01 T02950137  RH  038%=      5-min Rain = 0
KAM1 040059Z 18014KT 30/14 A3008 RMK A01 T02950138  RH  038%=      5-min Rain = 0
KAM1 040100Z 18011KT 29/14 A3008 RMK A01 T02940138  RH  038%=      5-min Rain = 0
KAM1 040101Z 17012KT 29/14 A3008 RMK A01 T02940138  RH  038%=      5-min Rain = 0
KAM1 040102Z 17010KT 29/14 A3008 RMK A01 T02930138  RH  039%=      5-min Rain = 0
KAM1 040103Z 17011KT 29/14 A3008 RMK A01 T02920138  RH  039%=      5-min Rain = 0
KAM1 040104Z 17011KT 29/14 A3008 RMK A01 T02920138  RH  039%=      5-min Rain = 0
KAM1 040105Z 17010KT 29/14 A3008 RMK A01 T02920138  RH  039%=      5-min Rain = 0
KAM1 040106Z 17011KT 29/14 A3008 RMK A01 T02920138  RH  039%=      5-min Rain = 0
KAM1 040107Z 16011KT 29/14 A3009 RMK A01 T02910138  RH  039%=      5-min Rain = 0
KAM1 040108Z 16011KT 29/14 A3008 RMK A01 T02910138  RH  039%=      5-min Rain = 0
KAM1 040109Z 16010KT 29/14 A3009 RMK A01 T02910138  RH  039%=      5-min Rain = 0
KAM1 040110Z 16010KT 29/14 A3009 RMK A01 T02900138  RH  039%=      5-min Rain = 0
KAM1 040111Z 16009KT 29/14 A3009 RMK A01 T02900139  RH  040%=      5-min Rain = 0
KAM1 040112Z 17009KT 29/14 A3009 RMK A01 T02900139  RH  040%=      5-min Rain = 0
KAM1 040113Z 17009KT 29/14 A3009 RMK A01 T02890139  RH  040%=      5-min Rain = 0
KAM1 040114Z 17009KT 29/14 A3008 RMK A01 T02880139  RH  040%=      5-min Rain = 0
KAM1 040115Z 16011KT 29/14 A3008 RMK A01 T02880139  RH  040%=      5-min Rain = 0
KAM1 040116Z 16013KT 29/14 A3008 RMK A01 T02870138  RH  040%=      5-min Rain = 0
KAM1 040117Z 17010KT 29/14 A3009 RMK A01 T02870139  RH  040%=      5-min Rain = 0
KAM1 040118Z 16010KT 29/14 A3009 RMK A01 T02880139  RH  040%=      5-min Rain = 0
KAM1 040119Z 16009KT 29/14 A3009 RMK A01 T02880139  RH  040%=      5-min Rain = 0
KAM1 040120Z 16009KT 29/14 A3009 RMK A01 T02870139  RH  040%=      5-min Rain = 0
KAM1 040121Z 16009KT 29/14 A3009 RMK A01 T02860140  RH  041%=      5-min Rain = 0
KAM1 040122Z 16011KT 29/14 A3009 RMK A01 T02850139  RH  041%=      5-min Rain = 0
KAM1 040123Z 16010KT 29/14 A3009 RMK A01 T02850140  RH  041%=      5-min Rain = 0
KAM1 040124Z 17010KT 29/14 A3009 RMK A01 T02850140  RH  041%=      5-min Rain = 0
KAM1 040125Z 16010KT 29/14 A3009 RMK A01 T02850140  RH  041%=      5-min Rain = 0
KAM1 040126Z 17008KT 29/14 A3009 RMK A01 T02850140  RH  041%=      5-min Rain = 0
KAM1 040127Z 17009KT 28/14 A3009 RMK A01 T02840140  RH  041%=      5-min Rain = 0
KAM1 040128Z 16008KT 28/14 A3009 RMK A01 T02830140  RH  042%=      5-min Rain = 0
KAM1 040129Z 17008KT 28/14 A3009 RMK A01 T02820140  RH  042%=      5-min Rain = 0
KAM1 040130Z 17009KT 28/14 A3009 RMK A01 T02820140  RH  042%=      5-min Rain = 0
KAM1 040131Z 16009KT 28/14 A3009 RMK A01 T02820140  RH  042%=      5-min Rain = 0
KAM1 040132Z 16009KT 28/14 A3009 RMK A01 T02810140  RH  042%=      5-min Rain = 0
KAM1 040133Z 16009KT 28/14 A3009 RMK A01 T02810140  RH  042%=      5-min Rain = 0
KAM1 040134Z 17009KT 28/14 A3009 RMK A01 T02810141  RH  042%=      5-min Rain = 0
KAM1 040135Z 16009KT 28/14 A3009 RMK A01 T02810141  RH  042%=      5-min Rain = 0
KAM1 040136Z 16010KT 28/14 A3009 RMK A01 T02810141  RH  042%=      5-min Rain = 0
KAM1 040137Z 16013KT 28/14 A3009 RMK A01 T02810141  RH  042%=      5-min Rain = 0
KAM1 040138Z 17011KT 28/14 A3009 RMK A01 T02810141  RH  042%=      5-min Rain = 0
KAM1 040139Z 16010KT 28/14 A3009 RMK A01 T02820142  RH  042%=      5-min Rain = 0
KAM1 040140Z 16010KT 28/14 A3009 RMK A01 T02820142  RH  042%=      5-min Rain = 0
KAM1 040141Z 16010KT 28/14 A3009 RMK A01 T02810142  RH  042%=      5-min Rain = 0
KAM1 040142Z 16008KT 28/14 A3009 RMK A01 T02810142  RH  042%=      5-min Rain = 0
KAM1 040143Z 16009KT 28/14 A3009 RMK A01 T02800141  RH  043%=      5-min Rain = 0
KAM1 040144Z 16008KT 28/14 A3009 RMK A01 T02790141  RH  043%=      5-min Rain = 0
KAM1 040145Z 16008KT 28/14 A301 RMK A01 T02780141  RH  043%=      5-min Rain = 0
KAM1 040146Z 16008KT 28/14 A301 RMK A01 T02770141  RH  043%=      5-min Rain = 0
KAM1 040147Z 16009KT 28/14 A301 RMK A01 T02770141  RH  043%=      5-min Rain = 0
KAM1 040148Z 17009KT 28/14 A301 RMK A01 T02760141  RH  043%=      5-min Rain = 0
KAM1 040149Z 16009KT 28/14 A301 RMK A01 T02760141  RH  044%=      5-min Rain = 0
KAM1 040150Z 16008KT 28/14 A301 RMK A01 T02760141  RH  044%=      5-min Rain = 0
KAM1 040151Z 17009KT 28/14 A301 RMK A01 T02760141  RH  044%=      5-min Rain = 0
KAM1 040152Z 17008KT 28/14 A301 RMK A01 T02760141  RH  044%=      5-min Rain = 0
KAM1 040153Z 16007KT 28/14 A301 RMK A01 T02750141  RH  044%=      5-min Rain = 0
KAM1 040154Z 16007KT 27/14 A3011 RMK A01 T02740141  RH  044%=      5-min Rain = 0
KAM1 040155Z 15007KT 27/14 A3011 RMK A01 T02730141  RH  044%=      5-min Rain = 0
KAM1 040156Z 15007KT 27/14 A3011 RMK A01 T02720141  RH  044%=      5-min Rain = 0
KAM1 040157Z 14006KT 27/14 A3011 RMK A01 T02710141  RH  045%=      5-min Rain = 0
KAM1 040158Z 14007KT 27/14 A3011 RMK A01 T02700142  RH  045%=      5-min Rain = 0
KAM1 040159Z 14007KT 27/14 A3011 RMK A01 T02690142  RH  046%=      5-min Rain = 0
KAM1 040200Z 15008KT 27/14 A3011 RMK A01 T02690142  RH  046%=      5-min Rain = 0
KAM1 040201Z 15008KT 27/14 A3011 RMK A01 T02690142  RH  046%=      5-min Rain = 0
KAM1 040202Z 15008KT 27/14 A3011 RMK A01 T02690143  RH  046%=      5-min Rain = 0
KAM1 040203Z 15008KT 27/14 A3012 RMK A01 T02690143  RH  046%=      5-min Rain = 0
KAM1 040204Z 16008KT 27/14 A3012 RMK A01 T02680144  RH  046%=      5-min Rain = 0
KAM1 040205Z 16008KT 27/14 A3012 RMK A01 T02680144  RH  046%=      5-min Rain = 0
KAM1 040206Z 16008KT 27/14 A3012 RMK A01 T02680143  RH  046%=      5-min Rain = 0
KAM1 040207Z 16008KT 27/14 A3012 RMK A01 T02680143  RH  046%=      5-min Rain = 0
KAM1 040208Z 15007KT 27/14 A3012 RMK A01 T02680144  RH  046%=      5-min Rain = 0
KAM1 040209Z 15008KT 27/14 A3012 RMK A01 T02670144  RH  047%=      5-min Rain = 0
KAM1 040210Z 15006KT 27/15 A3012 RMK A01 T02660145  RH  047%=      5-min Rain = 0
KAM1 040211Z 15008KT 27/15 A3012 RMK A01 T02660145  RH  047%=      5-min Rain = 0
KAM1 040212Z 14009KT 27/15 A3012 RMK A01 T02660146  RH  048%=      5-min Rain = 0
KAM1 040213Z 14009KT 27/15 A3012 RMK A01 T02670146  RH  047%=      5-min Rain = 0
KAM1 040214Z 14010KT 27/15 A3012 RMK A01 T02680147  RH  047%=      5-min Rain = 0
KAM1 040215Z 14008KT 27/15 A3012 RMK A01 T02690147  RH  047%=      5-min Rain = 0
KAM1 040216Z 13009KT 27/15 A3012 RMK A01 T02690147  RH  047%=      5-min Rain = 0
KAM1 040217Z 13010KT 27/15 A3012 RMK A01 T02690147  RH  047%=      5-min Rain = 0
KAM1 040218Z 14010KT 27/15 A3012 RMK A01 T02690147  RH  047%=      5-min Rain = 0
KAM1 040219Z 14012KT 27/15 A3012 RMK A01 T02690147  RH  047%=      5-min Rain = 0
KAM1 040220Z 14012KT 27/15 A3012 RMK A01 T02700147  RH  047%=      5-min Rain = 0
KAM1 040221Z 14010KT 27/15 A3012 RMK A01 T02710147  RH  047%=      5-min Rain = 0
KAM1 040222Z 14011KT 27/15 A3012 RMK A01 T02700147  RH  047%=      5-min Rain = 0
KAM1 040223Z 14010KT 27/15 A3012 RMK A01 T02710147  RH  047%=      5-min Rain = 0
KAM1 040224Z 14009KT 27/15 A3012 RMK A01 T02700147  RH  047%=      5-min Rain = 0
KAM1 040225Z 14010KT 27/15 A3012 RMK A01 T02700147  RH  047%=      5-min Rain = 0
KAM1 040226Z 14011KT 27/15 A3012 RMK A01 T02690147  RH  047%=      5-min Rain = 0
KAM1 040227Z 14010KT 27/15 A3012 RMK A01 T02690147  RH  047%=      5-min Rain = 0
KAM1 040228Z 14011KT 27/15 A3012 RMK A01 T02690147  RH  047%=      5-min Rain = 0
KAM1 040229Z 14011KT 27/15 A3012 RMK A01 T02690146  RH  047%=      5-min Rain = 0
KAM1 040230Z 14012KT 27/15 A3012 RMK A01 T02690146  RH  047%=      5-min Rain = 0
KAM1 040231Z 14010KT 27/15 A3012 RMK A01 T02690146  RH  047%=      5-min Rain = 0
KAM1 040232Z 14010KT 27/15 A3012 RMK A01 T02690147  RH  047%=      5-min Rain = 0
KAM1 040233Z 14010KT 27/15 A3012 RMK A01 T02680147  RH  047%=      5-min Rain = 0
KAM1 040234Z 14010KT 27/15 A3012 RMK A01 T02680146  RH  047%=      5-min Rain = 0
KAM1 040235Z 15010KT 27/15 A3012 RMK A01 T02680147  RH  047%=      5-min Rain = 0
KAM1 040236Z 15010KT 27/15 A3012 RMK A01 T02670147  RH  048%=      5-min Rain = 0
KAM1 040237Z 15009KT 27/15 A3012 RMK A01 T02670147  RH  048%=      5-min Rain = 0
KAM1 040238Z 15009KT 27/15 A3012 RMK A01 T02670147  RH  048%=      5-min Rain = 0
KAM1 040239Z 15007KT 27/15 A3012 RMK A01 T02660147  RH  048%=      5-min Rain = 0
KAM1 040240Z 15007KT 27/15 A3012 RMK A01 T02650147  RH  048%=      5-min Rain = 0
KAM1 040241Z 14008KT 26/15 A3012 RMK A01 T02640147  RH  049%=      5-min Rain = 0
KAM1 040242Z 14009KT 26/15 A3013 RMK A01 T02630147  RH  049%=      5-min Rain = 0
KAM1 040243Z 14008KT 26/15 A3013 RMK A01 T02620147  RH  049%=      5-min Rain = 0
KAM1 040244Z 15009KT 26/15 A3013 RMK A01 T02620147  RH  049%=      5-min Rain = 0
KAM1 040245Z 14009KT 26/15 A3013 RMK A01 T02630147  RH  049%=      5-min Rain = 0
KAM1 040246Z 15008KT 26/15 A3013 RMK A01 T02630147  RH  049%=      5-min Rain = 0
KAM1 040247Z 15008KT 26/15 A3013 RMK A01 T02630147  RH  049%=      5-min Rain = 0
KAM1 040248Z 16008KT 26/15 A3013 RMK A01 T02630147  RH  049%=      5-min Rain = 0
KAM1 040249Z 16008KT 26/15 A3013 RMK A01 T02630147  RH  049%=      5-min Rain = 0
KAM1 040250Z 16009KT 26/15 A3013 RMK A01 T02620146  RH  049%=      5-min Rain = 0
KAM1 040251Z 15008KT 26/15 A3013 RMK A01 T02620147  RH  049%=      5-min Rain = 0
KAM1 040252Z 16008KT 26/15 A3013 RMK A01 T02610147  RH  049%=      5-min Rain = 0
KAM1 040253Z 16009KT 26/15 A3013 RMK A01 T02600146  RH  049%=      5-min Rain = 0
KAM1 040254Z 16008KT 26/15 A3013 RMK A01 T02600146  RH  050%=      5-min Rain = 0
KAM1 040255Z 16007KT 26/15 A3013 RMK A01 T02590146  RH  050%=      5-min Rain = 0
KAM1 040256Z 16008KT 26/15 A3013 RMK A01 T02580146  RH  050%=      5-min Rain = 0
KAM1 040257Z 16008KT 26/15 A3013 RMK A01 T02580146  RH  050%=      5-min Rain = 0
KAM1 040258Z 15008KT 26/15 A3013 RMK A01 T02570146  RH  050%=      5-min Rain = 0
KAM1 040259Z 15007KT 26/15 A3013 RMK A01 T02570146  RH  050%=      5-min Rain = 0
KAM1 040300Z 15007KT 26/15 A3013 RMK A01 T02560146  RH  051%=      5-min Rain = 0
KAM1 040301Z 15007KT 26/15 A3013 RMK A01 T02550146  RH  051%=      5-min Rain = 0
KAM1 040302Z 15007KT 25/15 A3013 RMK A01 T02540146  RH  051%=      5-min Rain = 0
KAM1 040303Z 14007KT 25/15 A3012 RMK A01 T02540146  RH  051%=      5-min Rain = 0
KAM1 040304Z 14007KT 25/15 A3012 RMK A01 T02540147  RH  052%=      5-min Rain = 0
KAM1 040305Z 14009KT 25/15 A3012 RMK A01 T02530147  RH  052%=      5-min Rain = 0
KAM1 040306Z 14008KT 26/15 A3012 RMK A01 T02550147  RH  051%=      5-min Rain = 0
KAM1 040307Z 14009KT 26/15 A3012 RMK A01 T02560147  RH  051%=      5-min Rain = 0
KAM1 040308Z 14009KT 26/15 A3012 RMK A01 T02570148  RH  051%=      5-min Rain = 0
KAM1 040309Z 13009KT 26/15 A3012 RMK A01 T02580148  RH  051%=      5-min Rain = 0
KAM1 040310Z 14008KT 26/15 A3013 RMK A01 T02580147  RH  050%=      5-min Rain = 0
KAM1 040311Z 13008KT 26/15 A3013 RMK A01 T02580148  RH  050%=      5-min Rain = 0
KAM1 040312Z 13010KT 26/15 A3013 RMK A01 T02580148  RH  051%=      5-min Rain = 0
KAM1 040313Z 13010KT 26/15 A3013 RMK A01 T02580147  RH  050%=      5-min Rain = 0
KAM1 040314Z 13008KT 26/15 A3013 RMK A01 T02590148  RH  050%=      5-min Rain = 0
KAM1 040315Z 12009KT 26/15 A3013 RMK A01 T02590148  RH  050%=      5-min Rain = 0
KAM1 040316Z 12009KT 26/15 A3013 RMK A01 T02570147  RH  051%=      5-min Rain = 0
KAM1 040317Z 12010KT 26/15 A3013 RMK A01 T02560147  RH  051%=      5-min Rain = 0
KAM1 040318Z 13011KT 26/15 A3013 RMK A01 T02550147  RH  051%=      5-min Rain = 0
KAM1 040319Z 13011KT 26/15 A3013 RMK A01 T02550147  RH  051%=      5-min Rain = 0
KAM1 040320Z 13011KT 26/15 A3013 RMK A01 T02560147  RH  051%=      5-min Rain = 0
KAM1 040321Z 13012KT 26/15 A3013 RMK A01 T02550146  RH  051%=      5-min Rain = 0
KAM1 040322Z 13011KT 26/15 A3013 RMK A01 T02560146  RH  051%=      5-min Rain = 0
KAM1 040323Z 13011KT 26/15 A3013 RMK A01 T02560146  RH  051%=      5-min Rain = 0
KAM1 040324Z 13011KT 26/15 A3013 RMK A01 T02550146  RH  051%=      5-min Rain = 0
KAM1 040325Z 13012KT 26/15 A3013 RMK A01 T02550146  RH  051%=      5-min Rain = 0
KAM1 040326Z 13012KT 26/15 A3013 RMK A01 T02550146  RH  051%=      5-min Rain = 0
KAM1 040327Z 13012KT 26/15 A3013 RMK A01 T02550146  RH  051%=      5-min Rain = 0
KAM1 040328Z 13011KT 26/15 A3013 RMK A01 T02550146  RH  051%=      5-min Rain = 0
KAM1 040329Z 13010KT 25/15 A3013 RMK A01 T02540145  RH  051%=      5-min Rain = 0
KAM1 040330Z 13011KT 25/15 A3013 RMK A01 T02540145  RH  051%=      5-min Rain = 0
KAM1 040331Z 13011KT 25/15 A3013 RMK A01 T02540145  RH  051%=      5-min Rain = 0
KAM1 040332Z 13010KT 25/15 A3013 RMK A01 T02540145  RH  051%=      5-min Rain = 0
KAM1 040333Z 13011KT 25/15 A3013 RMK A01 T02540145  RH  051%=      5-min Rain = 0
KAM1 040334Z 13011KT 25/15 A3013 RMK A01 T02530145  RH  051%=      5-min Rain = 0
KAM1 040335Z 13010KT 25/15 A3013 RMK A01 T02540145  RH  051%=      5-min Rain = 0
KAM1 040336Z 13010KT 25/15 A3013 RMK A01 T02540145  RH  051%=      5-min Rain = 0
KAM1 040337Z 13009KT 25/15 A3013 RMK A01 T02530145  RH  051%=      5-min Rain = 0
KAM1 040338Z 13009KT 25/15 A3013 RMK A01 T02530145  RH  051%=      5-min Rain = 0
KAM1 040339Z 13009KT 25/15 A3013 RMK A01 T02520145  RH  051%=      5-min Rain = 0
KAM1 040340Z 13009KT 25/15 A3013 RMK A01 T02520145  RH  051%=      5-min Rain = 0
KAM1 040341Z 13009KT 25/15 A3013 RMK A01 T02510145  RH  052%=      5-min Rain = 0
KAM1 040342Z 13009KT 25/14 A3013 RMK A01 T02510144  RH  052%=      5-min Rain = 0
KAM1 040343Z 13009KT 25/15 A3013 RMK A01 T02510145  RH  052%=      5-min Rain = 0
KAM1 040344Z 13010KT 25/15 A3013 RMK A01 T02500145  RH  052%=      5-min Rain = 0
KAM1 040345Z 13009KT 25/15 A3013 RMK A01 T02500145  RH  052%=      5-min Rain = 0
KAM1 040346Z 13010KT 25/15 A3013 RMK A01 T02500145  RH  052%=      5-min Rain = 0
KAM1 040347Z 13009KT 25/15 A3013 RMK A01 T02500145  RH  052%=      5-min Rain = 0
KAM1 040348Z 13009KT 25/15 A3013 RMK A01 T02500145  RH  052%=      5-min Rain = 0
KAM1 040349Z 13010KT 25/15 A3013 RMK A01 T02500145  RH  052%=      5-min Rain = 0
KAM1 040350Z 13011KT 25/15 A3014 RMK A01 T02500145  RH  052%=      5-min Rain = 0
KAM1 040351Z 13011KT 25/15 A3014 RMK A01 T02500145  RH  052%=      5-min Rain = 0
KAM1 040352Z 13009KT 25/15 A3014 RMK A01 T02510145  RH  052%=      5-min Rain = 0
KAM1 040353Z 13011KT 25/15 A3014 RMK A01 T02510145  RH  052%=      5-min Rain = 0
KAM1 040354Z 13010KT 25/15 A3014 RMK A01 T02510146  RH  052%=      5-min Rain = 0
KAM1 040355Z 13010KT 25/15 A3014 RMK A01 T02510145  RH  052%=      5-min Rain = 0
KAM1 040356Z 13010KT 25/15 A3014 RMK A01 T02510145  RH  052%=      5-min Rain = 0
KAM1 040357Z 13010KT 25/15 A3014 RMK A01 T02510145  RH  052%=      5-min Rain = 0
KAM1 040358Z 14010KT 25/15 A3014 RMK A01 T02510145  RH  052%=      5-min Rain = 0
KAM1 040359Z 13010KT 25/15 A3014 RMK A01 T02510145  RH  052%=      5-min Rain = 0
KAM1 040400Z 13011KT 25/15 A3014 RMK A01 T02510145  RH  052%=      5-min Rain = 0
KAM1 040401Z 13011KT 25/15 A3014 RMK A01 T02510145  RH  052%=      5-min Rain = 0
KAM1 040402Z 14010KT 25/15 A3014 RMK A01 T02510145  RH  052%=      5-min Rain = 0
KAM1 040403Z 14009KT 25/15 A3014 RMK A01 T02510145  RH  052%=      5-min Rain = 0
KAM1 040404Z 14010KT 25/15 A3014 RMK A01 T02510145  RH  052%=      5-min Rain = 0
KAM1 040405Z 14009KT 25/15 A3014 RMK A01 T02500145  RH  052%=      5-min Rain = 0
KAM1 040406Z 14010KT 25/15 A3014 RMK A01 T02500145  RH  052%=      5-min Rain = 0
KAM1 040407Z 14009KT 25/15 A3014 RMK A01 T02500145  RH  052%=      5-min Rain = 0
KAM1 040408Z 13008KT 25/15 A3014 RMK A01 T02500145  RH  052%=      5-min Rain = 0
KAM1 040409Z 14008KT 25/15 A3014 RMK A01 T02490145  RH  052%=      5-min Rain = 0
KAM1 040410Z 14008KT 25/15 A3014 RMK A01 T02490145  RH  052%=      5-min Rain = 0
KAM1 040411Z 14008KT 25/15 A3014 RMK A01 T02480145  RH  053%=      5-min Rain = 0
KAM1 040412Z 14008KT 25/15 A3014 RMK A01 T02470145  RH  053%=      5-min Rain = 0
KAM1 040413Z 14009KT 25/15 A3014 RMK A01 T02470145  RH  053%=      5-min Rain = 0
KAM1 040414Z 14009KT 25/15 A3014 RMK A01 T02470145  RH  053%=      5-min Rain = 0
KAM1 040415Z 14008KT 25/15 A3014 RMK A01 T02470145  RH  053%=      5-min Rain = 0
KAM1 040416Z 14008KT 25/15 A3014 RMK A01 T02470145  RH  053%=      5-min Rain = 0
KAM1 040417Z 14008KT 25/15 A3014 RMK A01 T02460145  RH  053%=      5-min Rain = 0
KAM1 040418Z 14008KT 25/15 A3014 RMK A01 T02460145  RH  053%=      5-min Rain = 0
KAM1 040419Z 14008KT 25/15 A3014 RMK A01 T02460145  RH  053%=      5-min Rain = 0
KAM1 040420Z 14006KT 25/15 A3014 RMK A01 T02450145  RH  054%=      5-min Rain = 0
KAM1 040421Z 14007KT 24/15 A3014 RMK A01 T02440145  RH  054%=      5-min Rain = 0
KAM1 040422Z 14008KT 24/15 A3014 RMK A01 T02440145  RH  054%=      5-min Rain = 0
KAM1 040423Z 14008KT 24/15 A3014 RMK A01 T02440145  RH  054%=      5-min Rain = 0
KAM1 040424Z 14007KT 24/15 A3014 RMK A01 T02440145  RH  054%=      5-min Rain = 0
KAM1 040425Z 14008KT 24/15 A3014 RMK A01 T02440145  RH  054%=      5-min Rain = 0
KAM1 040426Z 14007KT 24/15 A3014 RMK A01 T02430145  RH  054%=      5-min Rain = 0
KAM1 040427Z 14007KT 24/15 A3014 RMK A01 T02430145  RH  054%=      5-min Rain = 0
KAM1 040428Z 14009KT 24/15 A3014 RMK A01 T02420145  RH  055%=      5-min Rain = 0
KAM1 040429Z 14009KT 24/15 A3014 RMK A01 T02430145  RH  054%=      5-min Rain = 0
KAM1 040430Z 14009KT 24/15 A3014 RMK A01 T02430145  RH  054%=      5-min Rain = 0
KAM1 040431Z 14009KT 24/15 A3014 RMK A01 T02440145  RH  054%=      5-min Rain = 0
KAM1 040432Z 14008KT 24/15 A3014 RMK A01 T02440145  RH  054%=      5-min Rain = 0
KAM1 040433Z 14009KT 24/15 A3014 RMK A01 T02440146  RH  054%=      5-min Rain = 0
KAM1 040434Z 13008KT 24/15 A3014 RMK A01 T02440146  RH  054%=      5-min Rain = 0
KAM1 040435Z 14008KT 24/15 A3014 RMK A01 T02440146  RH  054%=      5-min Rain = 0
KAM1 040436Z 14008KT 24/15 A3014 RMK A01 T02440146  RH  054%=      5-min Rain = 0
KAM1 040437Z 14009KT 24/15 A3014 RMK A01 T02440146  RH  054%=      5-min Rain = 0
KAM1 040438Z 14008KT 24/15 A3014 RMK A01 T02440146  RH  054%=      5-min Rain = 0
KAM1 040439Z 13008KT 24/15 A3014 RMK A01 T02430145  RH  054%=      5-min Rain = 0
KAM1 040440Z 13008KT 24/15 A3014 RMK A01 T02430146  RH  054%=      5-min Rain = 0
KAM1 040441Z 14007KT 24/15 A3013 RMK A01 T02430146  RH  054%=      5-min Rain = 0
KAM1 040442Z 14007KT 24/15 A3014 RMK A01 T02430146  RH  055%=      5-min Rain = 0
KAM1 040443Z 14007KT 24/15 A3014 RMK A01 T02420146  RH  055%=      5-min Rain = 0
KAM1 040444Z 14008KT 24/15 A3014 RMK A01 T02420146  RH  055%=      5-min Rain = 0
KAM1 040445Z 14008KT 24/15 A3014 RMK A01 T02420146  RH  055%=      5-min Rain = 0
KAM1 040446Z 14008KT 24/15 A3014 RMK A01 T02420146  RH  055%=      5-min Rain = 0
KAM1 040447Z 14007KT 24/15 A3014 RMK A01 T02420145  RH  055%=      5-min Rain = 0
KAM1 040448Z 14008KT 24/15 A3014 RMK A01 T02420146  RH  055%=      5-min Rain = 0
KAM1 040449Z 14008KT 24/15 A3014 RMK A01 T02420146  RH  055%=      5-min Rain = 0
KAM1 040450Z 14008KT 24/15 A3014 RMK A01 T02420145  RH  055%=      5-min Rain = 0
KAM1 040451Z 14008KT 24/15 A3014 RMK A01 T02420146  RH  055%=      5-min Rain = 0
KAM1 040452Z 14008KT 24/15 A3014 RMK A01 T02420146  RH  055%=      5-min Rain = 0
KAM1 040453Z 14009KT 24/15 A3014 RMK A01 T02420146  RH  055%=      5-min Rain = 0
KAM1 040454Z 14008KT 24/15 A3014 RMK A01 T02420146  RH  055%=      5-min Rain = 0
KAM1 040455Z 14009KT 24/15 A3014 RMK A01 T02420146  RH  055%=      5-min Rain = 0
KAM1 040456Z 14009KT 24/15 A3014 RMK A01 T02420146  RH  055%=      5-min Rain = 0
KAM1 040457Z 14009KT 24/15 A3014 RMK A01 T02430146  RH  055%=      5-min Rain = 0
KAM1 040458Z 14008KT 24/15 A3014 RMK A01 T02430146  RH  055%=      5-min Rain = 0
KAM1 040459Z 14010KT 24/15 A3014 RMK A01 T02430146  RH  055%=      5-min Rain = 0

Page generated in 0.0716 seconds.